<?xml version="1.0" encoding="UTF-8" standalone="no" ?>
<gpx xmlns="http://www.topografix.com/GPX/1/1" xmlns:xsi="http://www.w3.org/2001/XMLSchema-instance" xsi:schemaLocation="http://www.topografix.com/GPX/1/1 http://www.topografix.com/GPX/1/1/gpx.xsd" version="1.1" creator="VisuGPX - https://www.visugpx.com">
  <metadata>
    <name>Parcours n°𝟮 [BLEU] = FACILE</name>
    <desc><![CDATA[Parcours n°𝟮 [BLEU] = FACILE de l'UCP au Plan de la Tour. Ce parcours est labellisé FFC et répond aux normes de ce label.]]></desc>
  </metadata>
  <trk>
    <name><![CDATA[Parcours n°𝟮 [BLEU] = FACILE]]></name>
    <desc><![CDATA[Parcours n°𝟮 [BLEU] = FACILE  de l'UCP au Plan de la Tour. Ce parcours est labellisé FFC et répond aux normes de ce label.]]></desc>
    <extensions>
      <line xmlns="http://www.topografix.com/GPX/gpx_style/0/2">
        <color>004698</color>
        <width>4</width>
          <extensions>
            <sens>1</sens>
          </extensions>
      </line>
    </extensions>
    <trkseg>
      <trkpt lat="43.33814" lon="6.54596">
        <ele>74.7</ele>
        <time>2025-03-15T13:00:00.000Z</time>
      </trkpt>
      <trkpt lat="43.33815" lon="6.54597">
        <ele>74.74</ele>
        <time>2025-03-15T13:00:00.292Z</time>
      </trkpt>
      <trkpt lat="43.33816" lon="6.54599">
        <ele>74.8</ele>
        <time>2025-03-15T13:00:01.006Z</time>
      </trkpt>
      <trkpt lat="43.33818" lon="6.546">
        <ele>74.87</ele>
        <time>2025-03-15T13:00:01.813Z</time>
      </trkpt>
      <trkpt lat="43.33821" lon="6.54601">
        <ele>74.96</ele>
        <time>2025-03-15T13:00:02.861Z</time>
      </trkpt>
      <trkpt lat="43.33822" lon="6.54601">
        <ele>75.04</ele>
        <time>2025-03-15T13:00:03.239Z</time>
      </trkpt>
      <trkpt lat="43.33824" lon="6.54601">
        <ele>75.12</ele>
        <time>2025-03-15T13:00:03.962Z</time>
      </trkpt>
      <trkpt lat="43.33826" lon="6.546">
        <ele>75.21</ele>
        <time>2025-03-15T13:00:04.728Z</time>
      </trkpt>
      <trkpt lat="43.3383" lon="6.54597">
        <ele>75.33</ele>
        <time>2025-03-15T13:00:06.305Z</time>
      </trkpt>
      <trkpt lat="43.33832" lon="6.54596">
        <ele>75.42</ele>
        <time>2025-03-15T13:00:07.150Z</time>
      </trkpt>
      <trkpt lat="43.33851" lon="6.54579">
        <ele>75.64</ele>
        <time>2025-03-15T13:00:14.778Z</time>
      </trkpt>
      <trkpt lat="43.3387" lon="6.54562">
        <ele>75.63</ele>
        <time>2025-03-15T13:00:21.980Z</time>
      </trkpt>
      <trkpt lat="43.33877" lon="6.54558">
        <ele>75.6</ele>
        <time>2025-03-15T13:00:24.591Z</time>
      </trkpt>
      <trkpt lat="43.33882" lon="6.54557">
        <ele>75.55</ele>
        <time>2025-03-15T13:00:26.009Z</time>
      </trkpt>
      <trkpt lat="43.33883" lon="6.54558">
        <ele>75.51</ele>
        <time>2025-03-15T13:00:26.406Z</time>
      </trkpt>
      <trkpt lat="43.33884" lon="6.54565">
        <ele>75.47</ele>
        <time>2025-03-15T13:00:27.969Z</time>
      </trkpt>
      <trkpt lat="43.33884" lon="6.54568">
        <ele>75.44</ele>
        <time>2025-03-15T13:00:28.630Z</time>
      </trkpt>
      <trkpt lat="43.33884" lon="6.54585">
        <ele>75.42</ele>
        <time>2025-03-15T13:00:32.735Z</time>
      </trkpt>
      <trkpt lat="43.33884" lon="6.54598">
        <ele>75.42</ele>
        <time>2025-03-15T13:00:35.748Z</time>
      </trkpt>
      <trkpt lat="43.33884" lon="6.54602">
        <ele>75.42</ele>
        <time>2025-03-15T13:00:36.633Z</time>
      </trkpt>
      <trkpt lat="43.33883" lon="6.54606">
        <ele>75.44</ele>
        <time>2025-03-15T13:00:37.785Z</time>
      </trkpt>
      <trkpt lat="43.33883" lon="6.54611">
        <ele>75.46</ele>
        <time>2025-03-15T13:00:38.891Z</time>
      </trkpt>
      <trkpt lat="43.33883" lon="6.54615">
        <ele>75.49</ele>
        <time>2025-03-15T13:00:40.007Z</time>
      </trkpt>
      <trkpt lat="43.33882" lon="6.5462">
        <ele>75.53</ele>
        <time>2025-03-15T13:00:41.128Z</time>
      </trkpt>
      <trkpt lat="43.33882" lon="6.54643">
        <ele>75.56</ele>
        <time>2025-03-15T13:00:46.533Z</time>
      </trkpt>
      <trkpt lat="43.33883" lon="6.54661">
        <ele>75.54</ele>
        <time>2025-03-15T13:00:50.918Z</time>
      </trkpt>
      <trkpt lat="43.33886" lon="6.54675">
        <ele>75.54</ele>
        <time>2025-03-15T13:00:54.283Z</time>
      </trkpt>
      <trkpt lat="43.3389" lon="6.54694">
        <ele>75.57</ele>
        <time>2025-03-15T13:00:58.832Z</time>
      </trkpt>
      <trkpt lat="43.33898" lon="6.54725">
        <ele>75.68</ele>
        <time>2025-03-15T13:01:06.862Z</time>
      </trkpt>
      <trkpt lat="43.33902" lon="6.54734">
        <ele>75.76</ele>
        <time>2025-03-15T13:01:09.383Z</time>
      </trkpt>
      <trkpt lat="43.33903" lon="6.54737">
        <ele>75.81</ele>
        <time>2025-03-15T13:01:10.149Z</time>
      </trkpt>
      <trkpt lat="43.33903" lon="6.54739">
        <ele>75.85</ele>
        <time>2025-03-15T13:01:10.871Z</time>
      </trkpt>
      <trkpt lat="43.33902" lon="6.54742">
        <ele>75.87</ele>
        <time>2025-03-15T13:01:11.605Z</time>
      </trkpt>
      <trkpt lat="43.33902" lon="6.54745">
        <ele>75.87</ele>
        <time>2025-03-15T13:01:12.296Z</time>
      </trkpt>
      <trkpt lat="43.33904" lon="6.54754">
        <ele>75.84</ele>
        <time>2025-03-15T13:01:14.531Z</time>
      </trkpt>
      <trkpt lat="43.33906" lon="6.54764">
        <ele>75.78</ele>
        <time>2025-03-15T13:01:16.682Z</time>
      </trkpt>
      <trkpt lat="43.3391" lon="6.5478">
        <ele>75.7</ele>
        <time>2025-03-15T13:01:20.632Z</time>
      </trkpt>
      <trkpt lat="43.33921" lon="6.54798">
        <ele>75.59</ele>
        <time>2025-03-15T13:01:26.082Z</time>
      </trkpt>
      <trkpt lat="43.33928" lon="6.54809">
        <ele>75.42</ele>
        <time>2025-03-15T13:01:29.437Z</time>
      </trkpt>
      <trkpt lat="43.33935" lon="6.5482">
        <ele>75.18</ele>
        <time>2025-03-15T13:01:32.645Z</time>
      </trkpt>
      <trkpt lat="43.33938" lon="6.5483">
        <ele>74.89</ele>
        <time>2025-03-15T13:01:34.884Z</time>
      </trkpt>
      <trkpt lat="43.33938" lon="6.54834">
        <ele>74.6</ele>
        <time>2025-03-15T13:01:35.767Z</time>
      </trkpt>
      <trkpt lat="43.33935" lon="6.54842">
        <ele>74.32</ele>
        <time>2025-03-15T13:01:37.707Z</time>
      </trkpt>
      <trkpt lat="43.33925" lon="6.54859">
        <ele>73.97</ele>
        <time>2025-03-15T13:01:42.414Z</time>
      </trkpt>
      <trkpt lat="43.3392" lon="6.54865">
        <ele>73.59</ele>
        <time>2025-03-15T13:01:44.381Z</time>
      </trkpt>
      <trkpt lat="43.33905" lon="6.54886">
        <ele>73.15</ele>
        <time>2025-03-15T13:01:51.004Z</time>
      </trkpt>
      <trkpt lat="43.33903" lon="6.54892">
        <ele>72.74</ele>
        <time>2025-03-15T13:01:52.345Z</time>
      </trkpt>
      <trkpt lat="43.33902" lon="6.54896">
        <ele>72.33</ele>
        <time>2025-03-15T13:01:53.143Z</time>
      </trkpt>
      <trkpt lat="43.33902" lon="6.549">
        <ele>71.92</ele>
        <time>2025-03-15T13:01:54.114Z</time>
      </trkpt>
      <trkpt lat="43.33901" lon="6.54905">
        <ele>71.49</ele>
        <time>2025-03-15T13:01:55.086Z</time>
      </trkpt>
      <trkpt lat="43.339" lon="6.5491">
        <ele>71.06</ele>
        <time>2025-03-15T13:01:56.155Z</time>
      </trkpt>
      <trkpt lat="43.33901" lon="6.54924">
        <ele>70.58</ele>
        <time>2025-03-15T13:01:59.019Z</time>
      </trkpt>
      <trkpt lat="43.33903" lon="6.54939">
        <ele>70.12</ele>
        <time>2025-03-15T13:02:02.275Z</time>
      </trkpt>
      <trkpt lat="43.33905" lon="6.54948">
        <ele>69.68</ele>
        <time>2025-03-15T13:02:04.110Z</time>
      </trkpt>
      <trkpt lat="43.33905" lon="6.54952">
        <ele>69.24</ele>
        <time>2025-03-15T13:02:05.069Z</time>
      </trkpt>
      <trkpt lat="43.33911" lon="6.54985">
        <ele>68.76</ele>
        <time>2025-03-15T13:02:12.482Z</time>
      </trkpt>
      <trkpt lat="43.33913" lon="6.54991">
        <ele>68.33</ele>
        <time>2025-03-15T13:02:13.872Z</time>
      </trkpt>
      <trkpt lat="43.33914" lon="6.54998">
        <ele>67.9</ele>
        <time>2025-03-15T13:02:15.277Z</time>
      </trkpt>
      <trkpt lat="43.33915" lon="6.55004">
        <ele>67.48</ele>
        <time>2025-03-15T13:02:16.570Z</time>
      </trkpt>
      <trkpt lat="43.33916" lon="6.55011">
        <ele>67.08</ele>
        <time>2025-03-15T13:02:17.991Z</time>
      </trkpt>
      <trkpt lat="43.33917" lon="6.55018">
        <ele>66.68</ele>
        <time>2025-03-15T13:02:19.559Z</time>
      </trkpt>
      <trkpt lat="43.33918" lon="6.55025">
        <ele>66.29</ele>
        <time>2025-03-15T13:02:21.042Z</time>
      </trkpt>
      <trkpt lat="43.33925" lon="6.55071">
        <ele>65.78</ele>
        <time>2025-03-15T13:02:31.541Z</time>
      </trkpt>
      <trkpt lat="43.3393" lon="6.551">
        <ele>65.4</ele>
        <time>2025-03-15T13:02:38.321Z</time>
      </trkpt>
      <trkpt lat="43.33942" lon="6.55131">
        <ele>65.05</ele>
        <time>2025-03-15T13:02:46.232Z</time>
      </trkpt>
      <trkpt lat="43.33955" lon="6.55147">
        <ele>64.75</ele>
        <time>2025-03-15T13:02:51.572Z</time>
      </trkpt>
      <trkpt lat="43.33962" lon="6.55153">
        <ele>64.47</ele>
        <time>2025-03-15T13:02:54.008Z</time>
      </trkpt>
      <trkpt lat="43.33968" lon="6.55161">
        <ele>64.2</ele>
        <time>2025-03-15T13:02:56.560Z</time>
      </trkpt>
      <trkpt lat="43.33982" lon="6.55177">
        <ele>63.9</ele>
        <time>2025-03-15T13:03:02.168Z</time>
      </trkpt>
      <trkpt lat="43.33985" lon="6.55182">
        <ele>63.64</ele>
        <time>2025-03-15T13:03:03.468Z</time>
      </trkpt>
      <trkpt lat="43.33987" lon="6.55189">
        <ele>63.37</ele>
        <time>2025-03-15T13:03:04.977Z</time>
      </trkpt>
      <trkpt lat="43.33987" lon="6.55197">
        <ele>63.12</ele>
        <time>2025-03-15T13:03:06.697Z</time>
      </trkpt>
      <trkpt lat="43.33986" lon="6.55204">
        <ele>62.89</ele>
        <time>2025-03-15T13:03:08.137Z</time>
      </trkpt>
      <trkpt lat="43.33984" lon="6.5521">
        <ele>62.67</ele>
        <time>2025-03-15T13:03:09.516Z</time>
      </trkpt>
      <trkpt lat="43.33982" lon="6.55216">
        <ele>62.47</ele>
        <time>2025-03-15T13:03:10.907Z</time>
      </trkpt>
      <trkpt lat="43.3398" lon="6.55223">
        <ele>62.28</ele>
        <time>2025-03-15T13:03:12.525Z</time>
      </trkpt>
      <trkpt lat="43.33978" lon="6.55229">
        <ele>62.1</ele>
        <time>2025-03-15T13:03:14.088Z</time>
      </trkpt>
      <trkpt lat="43.33975" lon="6.55236">
        <ele>61.94</ele>
        <time>2025-03-15T13:03:15.628Z</time>
      </trkpt>
      <trkpt lat="43.33973" lon="6.55243">
        <ele>61.79</ele>
        <time>2025-03-15T13:03:17.212Z</time>
      </trkpt>
      <trkpt lat="43.33971" lon="6.5525">
        <ele>61.65</ele>
        <time>2025-03-15T13:03:19.008Z</time>
      </trkpt>
      <trkpt lat="43.33968" lon="6.55261">
        <ele>61.53</ele>
        <time>2025-03-15T13:03:21.790Z</time>
      </trkpt>
      <trkpt lat="43.33966" lon="6.55265">
        <ele>61.43</ele>
        <time>2025-03-15T13:03:22.661Z</time>
      </trkpt>
      <trkpt lat="43.33965" lon="6.55269">
        <ele>61.35</ele>
        <time>2025-03-15T13:03:23.568Z</time>
      </trkpt>
      <trkpt lat="43.33965" lon="6.55274">
        <ele>61.29</ele>
        <time>2025-03-15T13:03:24.670Z</time>
      </trkpt>
      <trkpt lat="43.33963" lon="6.5528">
        <ele>61.24</ele>
        <time>2025-03-15T13:03:26.159Z</time>
      </trkpt>
      <trkpt lat="43.3396" lon="6.55292">
        <ele>61.22</ele>
        <time>2025-03-15T13:03:29.150Z</time>
      </trkpt>
      <trkpt lat="43.33956" lon="6.55305">
        <ele>61.19</ele>
        <time>2025-03-15T13:03:32.416Z</time>
      </trkpt>
      <trkpt lat="43.33954" lon="6.55311">
        <ele>61.19</ele>
        <time>2025-03-15T13:03:34.028Z</time>
      </trkpt>
      <trkpt lat="43.33954" lon="6.55318">
        <ele>61.21</ele>
        <time>2025-03-15T13:03:35.539Z</time>
      </trkpt>
      <trkpt lat="43.33953" lon="6.55324">
        <ele>61.24</ele>
        <time>2025-03-15T13:03:37.060Z</time>
      </trkpt>
      <trkpt lat="43.33958" lon="6.55348">
        <ele>61.31</ele>
        <time>2025-03-15T13:03:42.975Z</time>
      </trkpt>
      <trkpt lat="43.33961" lon="6.55359">
        <ele>61.36</ele>
        <time>2025-03-15T13:03:45.854Z</time>
      </trkpt>
      <trkpt lat="43.33964" lon="6.55371">
        <ele>61.43</ele>
        <time>2025-03-15T13:03:48.921Z</time>
      </trkpt>
      <trkpt lat="43.33968" lon="6.55383">
        <ele>61.49</ele>
        <time>2025-03-15T13:03:52.015Z</time>
      </trkpt>
      <trkpt lat="43.33969" lon="6.55389">
        <ele>61.55</ele>
        <time>2025-03-15T13:03:53.548Z</time>
      </trkpt>
      <trkpt lat="43.33972" lon="6.55401">
        <ele>61.59</ele>
        <time>2025-03-15T13:03:56.639Z</time>
      </trkpt>
      <trkpt lat="43.33974" lon="6.55407">
        <ele>61.62</ele>
        <time>2025-03-15T13:03:58.209Z</time>
      </trkpt>
      <trkpt lat="43.33976" lon="6.55413">
        <ele>61.63</ele>
        <time>2025-03-15T13:03:59.788Z</time>
      </trkpt>
      <trkpt lat="43.33978" lon="6.55419">
        <ele>61.63</ele>
        <time>2025-03-15T13:04:01.355Z</time>
      </trkpt>
      <trkpt lat="43.3398" lon="6.55425">
        <ele>61.6</ele>
        <time>2025-03-15T13:04:02.877Z</time>
      </trkpt>
      <trkpt lat="43.33981" lon="6.55432">
        <ele>61.55</ele>
        <time>2025-03-15T13:04:04.416Z</time>
      </trkpt>
      <trkpt lat="43.33989" lon="6.55463">
        <ele>61.41</ele>
        <time>2025-03-15T13:04:12.102Z</time>
      </trkpt>
      <trkpt lat="43.33991" lon="6.55469">
        <ele>61.33</ele>
        <time>2025-03-15T13:04:13.608Z</time>
      </trkpt>
      <trkpt lat="43.34001" lon="6.55508">
        <ele>61.25</ele>
        <time>2025-03-15T13:04:23.099Z</time>
      </trkpt>
      <trkpt lat="43.34003" lon="6.55514">
        <ele>61.16</ele>
        <time>2025-03-15T13:04:24.749Z</time>
      </trkpt>
      <trkpt lat="43.34017" lon="6.55558">
        <ele>61.06</ele>
        <time>2025-03-15T13:04:35.964Z</time>
      </trkpt>
      <trkpt lat="43.3402" lon="6.55564">
        <ele>60.91</ele>
        <time>2025-03-15T13:04:37.466Z</time>
      </trkpt>
      <trkpt lat="43.34038" lon="6.55603">
        <ele>60.76</ele>
        <time>2025-03-15T13:04:48.204Z</time>
      </trkpt>
      <trkpt lat="43.34043" lon="6.55616">
        <ele>60.56</ele>
        <time>2025-03-15T13:04:51.418Z</time>
      </trkpt>
      <trkpt lat="43.34042" lon="6.5562">
        <ele>60.33</ele>
        <time>2025-03-15T13:04:52.353Z</time>
      </trkpt>
      <trkpt lat="43.34039" lon="6.55624">
        <ele>60.08</ele>
        <time>2025-03-15T13:04:53.391Z</time>
      </trkpt>
      <trkpt lat="43.34037" lon="6.55628">
        <ele>59.8</ele>
        <time>2025-03-15T13:04:54.349Z</time>
      </trkpt>
      <trkpt lat="43.34032" lon="6.55636">
        <ele>59.51</ele>
        <time>2025-03-15T13:04:56.786Z</time>
      </trkpt>
      <trkpt lat="43.34022" lon="6.5565">
        <ele>59.19</ele>
        <time>2025-03-15T13:05:01.045Z</time>
      </trkpt>
      <trkpt lat="43.34002" lon="6.5568">
        <ele>58.84</ele>
        <time>2025-03-15T13:05:10.217Z</time>
      </trkpt>
      <trkpt lat="43.33998" lon="6.55685">
        <ele>58.49</ele>
        <time>2025-03-15T13:05:11.719Z</time>
      </trkpt>
      <trkpt lat="43.33982" lon="6.55708">
        <ele>58.12</ele>
        <time>2025-03-15T13:05:18.869Z</time>
      </trkpt>
      <trkpt lat="43.33978" lon="6.55713">
        <ele>57.76</ele>
        <time>2025-03-15T13:05:20.548Z</time>
      </trkpt>
      <trkpt lat="43.33974" lon="6.55719">
        <ele>57.39</ele>
        <time>2025-03-15T13:05:22.191Z</time>
      </trkpt>
      <trkpt lat="43.3397" lon="6.55724">
        <ele>57.03</ele>
        <time>2025-03-15T13:05:23.809Z</time>
      </trkpt>
      <trkpt lat="43.33965" lon="6.55731">
        <ele>56.69</ele>
        <time>2025-03-15T13:05:25.535Z</time>
      </trkpt>
      <trkpt lat="43.33961" lon="6.55736">
        <ele>56.37</ele>
        <time>2025-03-15T13:05:27.206Z</time>
      </trkpt>
      <trkpt lat="43.33953" lon="6.55748">
        <ele>56.07</ele>
        <time>2025-03-15T13:05:30.832Z</time>
      </trkpt>
      <trkpt lat="43.33933" lon="6.55777">
        <ele>55.8</ele>
        <time>2025-03-15T13:05:40.050Z</time>
      </trkpt>
      <trkpt lat="43.33928" lon="6.55783">
        <ele>55.56</ele>
        <time>2025-03-15T13:05:41.729Z</time>
      </trkpt>
      <trkpt lat="43.33924" lon="6.55788">
        <ele>55.34</ele>
        <time>2025-03-15T13:05:43.379Z</time>
      </trkpt>
      <trkpt lat="43.33921" lon="6.55794">
        <ele>55.13</ele>
        <time>2025-03-15T13:05:44.970Z</time>
      </trkpt>
      <trkpt lat="43.33901" lon="6.55822">
        <ele>54.88</ele>
        <time>2025-03-15T13:05:54.083Z</time>
      </trkpt>
      <trkpt lat="43.33892" lon="6.55832">
        <ele>54.72</ele>
        <time>2025-03-15T13:05:57.396Z</time>
      </trkpt>
      <trkpt lat="43.33884" lon="6.55839">
        <ele>54.57</ele>
        <time>2025-03-15T13:06:00.402Z</time>
      </trkpt>
      <trkpt lat="43.33881" lon="6.55843">
        <ele>54.42</ele>
        <time>2025-03-15T13:06:01.779Z</time>
      </trkpt>
      <trkpt lat="43.3387" lon="6.55855">
        <ele>54.27</ele>
        <time>2025-03-15T13:06:06.080Z</time>
      </trkpt>
      <trkpt lat="43.33859" lon="6.55858">
        <ele>54.15</ele>
        <time>2025-03-15T13:06:09.474Z</time>
      </trkpt>
      <trkpt lat="43.33849" lon="6.55862">
        <ele>54.04</ele>
        <time>2025-03-15T13:06:12.823Z</time>
      </trkpt>
      <trkpt lat="43.33844" lon="6.55866">
        <ele>53.95</ele>
        <time>2025-03-15T13:06:14.647Z</time>
      </trkpt>
      <trkpt lat="43.33838" lon="6.55869">
        <ele>53.87</ele>
        <time>2025-03-15T13:06:16.553Z</time>
      </trkpt>
      <trkpt lat="43.33833" lon="6.55871">
        <ele>53.8</ele>
        <time>2025-03-15T13:06:18.358Z</time>
      </trkpt>
      <trkpt lat="43.33827" lon="6.55873">
        <ele>53.73</ele>
        <time>2025-03-15T13:06:20.097Z</time>
      </trkpt>
      <trkpt lat="43.33822" lon="6.55874">
        <ele>53.67</ele>
        <time>2025-03-15T13:06:21.745Z</time>
      </trkpt>
      <trkpt lat="43.33812" lon="6.55875">
        <ele>53.61</ele>
        <time>2025-03-15T13:06:24.990Z</time>
      </trkpt>
      <trkpt lat="43.33808" lon="6.55877">
        <ele>53.55</ele>
        <time>2025-03-15T13:06:26.171Z</time>
      </trkpt>
      <trkpt lat="43.33807" lon="6.55886">
        <ele>53.49</ele>
        <time>2025-03-15T13:06:28.166Z</time>
      </trkpt>
      <trkpt lat="43.33807" lon="6.55895">
        <ele>53.41</ele>
        <time>2025-03-15T13:06:30.383Z</time>
      </trkpt>
      <trkpt lat="43.33807" lon="6.55899">
        <ele>53.33</ele>
        <time>2025-03-15T13:06:31.066Z</time>
      </trkpt>
      <trkpt lat="43.33807" lon="6.559">
        <ele>53.25</ele>
        <time>2025-03-15T13:06:31.424Z</time>
      </trkpt>
      <trkpt lat="43.33807" lon="6.559">
        <ele>53.17</ele>
        <time>2025-03-15T13:06:31.512Z</time>
      </trkpt>
      <trkpt lat="43.33807" lon="6.559">
        <ele>53.07</ele>
        <time>2025-03-15T13:06:31.578Z</time>
      </trkpt>
      <trkpt lat="43.33807" lon="6.559">
        <ele>52.97</ele>
        <time>2025-03-15T13:06:31.647Z</time>
      </trkpt>
      <trkpt lat="43.33807" lon="6.55904">
        <ele>52.85</ele>
        <time>2025-03-15T13:06:32.379Z</time>
      </trkpt>
      <trkpt lat="43.33807" lon="6.55906">
        <ele>52.73</ele>
        <time>2025-03-15T13:06:32.959Z</time>
      </trkpt>
      <trkpt lat="43.33807" lon="6.55911">
        <ele>52.59</ele>
        <time>2025-03-15T13:06:33.785Z</time>
      </trkpt>
      <trkpt lat="43.33807" lon="6.55918">
        <ele>52.45</ele>
        <time>2025-03-15T13:06:35.385Z</time>
      </trkpt>
      <trkpt lat="43.33807" lon="6.55927">
        <ele>52.3</ele>
        <time>2025-03-15T13:06:37.401Z</time>
      </trkpt>
      <trkpt lat="43.33805" lon="6.55937">
        <ele>52.13</ele>
        <time>2025-03-15T13:06:39.701Z</time>
      </trkpt>
      <trkpt lat="43.33804" lon="6.55942">
        <ele>51.97</ele>
        <time>2025-03-15T13:06:40.821Z</time>
      </trkpt>
      <trkpt lat="43.33804" lon="6.55942">
        <ele>51.82</ele>
        <time>2025-03-15T13:06:40.823Z</time>
      </trkpt>
      <trkpt lat="43.33804" lon="6.55943">
        <ele>51.67</ele>
        <time>2025-03-15T13:06:40.915Z</time>
      </trkpt>
      <trkpt lat="43.33797" lon="6.55958">
        <ele>51.5</ele>
        <time>2025-03-15T13:06:44.968Z</time>
      </trkpt>
      <trkpt lat="43.33795" lon="6.55963">
        <ele>51.36</ele>
        <time>2025-03-15T13:06:46.159Z</time>
      </trkpt>
      <trkpt lat="43.33793" lon="6.55969">
        <ele>51.21</ele>
        <time>2025-03-15T13:06:47.497Z</time>
      </trkpt>
      <trkpt lat="43.33791" lon="6.55974">
        <ele>51.07</ele>
        <time>2025-03-15T13:06:48.906Z</time>
      </trkpt>
      <trkpt lat="43.33789" lon="6.5598">
        <ele>50.93</ele>
        <time>2025-03-15T13:06:50.308Z</time>
      </trkpt>
      <trkpt lat="43.3378" lon="6.55995">
        <ele>50.79</ele>
        <time>2025-03-15T13:06:54.702Z</time>
      </trkpt>
      <trkpt lat="43.33774" lon="6.56003">
        <ele>50.7</ele>
        <time>2025-03-15T13:06:57.342Z</time>
      </trkpt>
      <trkpt lat="43.33772" lon="6.56009">
        <ele>50.63</ele>
        <time>2025-03-15T13:06:58.868Z</time>
      </trkpt>
      <trkpt lat="43.3377" lon="6.56023">
        <ele>50.58</ele>
        <time>2025-03-15T13:07:02.052Z</time>
      </trkpt>
      <trkpt lat="43.33772" lon="6.56037">
        <ele>50.55</ele>
        <time>2025-03-15T13:07:05.351Z</time>
      </trkpt>
      <trkpt lat="43.33775" lon="6.56043">
        <ele>50.55</ele>
        <time>2025-03-15T13:07:07.061Z</time>
      </trkpt>
      <trkpt lat="43.33778" lon="6.56048">
        <ele>50.56</ele>
        <time>2025-03-15T13:07:08.681Z</time>
      </trkpt>
      <trkpt lat="43.3378" lon="6.56054">
        <ele>50.59</ele>
        <time>2025-03-15T13:07:10.227Z</time>
      </trkpt>
      <trkpt lat="43.33783" lon="6.56059">
        <ele>50.65</ele>
        <time>2025-03-15T13:07:11.777Z</time>
      </trkpt>
      <trkpt lat="43.33785" lon="6.56064">
        <ele>50.73</ele>
        <time>2025-03-15T13:07:13.324Z</time>
      </trkpt>
      <trkpt lat="43.33783" lon="6.56076">
        <ele>50.83</ele>
        <time>2025-03-15T13:07:16.348Z</time>
      </trkpt>
      <trkpt lat="43.3377" lon="6.56086">
        <ele>50.88</ele>
        <time>2025-03-15T13:07:21.054Z</time>
      </trkpt>
      <trkpt lat="43.33761" lon="6.56098">
        <ele>51</ele>
        <time>2025-03-15T13:07:25.120Z</time>
      </trkpt>
      <trkpt lat="43.33761" lon="6.56102">
        <ele>51.11</ele>
        <time>2025-03-15T13:07:26.254Z</time>
      </trkpt>
      <trkpt lat="43.33763" lon="6.56111">
        <ele>51.23</ele>
        <time>2025-03-15T13:07:28.626Z</time>
      </trkpt>
      <trkpt lat="43.33766" lon="6.56115">
        <ele>51.34</ele>
        <time>2025-03-15T13:07:30.138Z</time>
      </trkpt>
      <trkpt lat="43.33768" lon="6.56117">
        <ele>51.45</ele>
        <time>2025-03-15T13:07:31.101Z</time>
      </trkpt>
      <trkpt lat="43.33774" lon="6.56118">
        <ele>51.56</ele>
        <time>2025-03-15T13:07:33.004Z</time>
      </trkpt>
      <trkpt lat="43.33776" lon="6.56121">
        <ele>51.66</ele>
        <time>2025-03-15T13:07:34.011Z</time>
      </trkpt>
      <trkpt lat="43.33775" lon="6.56129">
        <ele>51.74</ele>
        <time>2025-03-15T13:07:36.021Z</time>
      </trkpt>
      <trkpt lat="43.33772" lon="6.56136">
        <ele>51.81</ele>
        <time>2025-03-15T13:07:37.978Z</time>
      </trkpt>
      <trkpt lat="43.33765" lon="6.56148">
        <ele>51.87</ele>
        <time>2025-03-15T13:07:41.617Z</time>
      </trkpt>
      <trkpt lat="43.33758" lon="6.56161">
        <ele>51.91</ele>
        <time>2025-03-15T13:07:45.628Z</time>
      </trkpt>
      <trkpt lat="43.33758" lon="6.5618">
        <ele>51.97</ele>
        <time>2025-03-15T13:07:50.027Z</time>
      </trkpt>
      <trkpt lat="43.33761" lon="6.56183">
        <ele>52.05</ele>
        <time>2025-03-15T13:07:51.246Z</time>
      </trkpt>
      <trkpt lat="43.33767" lon="6.56185">
        <ele>52.16</ele>
        <time>2025-03-15T13:07:53.211Z</time>
      </trkpt>
      <trkpt lat="43.33769" lon="6.56186">
        <ele>52.25</ele>
        <time>2025-03-15T13:07:54.218Z</time>
      </trkpt>
      <trkpt lat="43.33771" lon="6.56187">
        <ele>52.35</ele>
        <time>2025-03-15T13:07:55.057Z</time>
      </trkpt>
      <trkpt lat="43.33774" lon="6.56189">
        <ele>52.45</ele>
        <time>2025-03-15T13:07:56.126Z</time>
      </trkpt>
      <trkpt lat="43.33777" lon="6.56189">
        <ele>52.55</ele>
        <time>2025-03-15T13:07:57.033Z</time>
      </trkpt>
      <trkpt lat="43.33779" lon="6.56191">
        <ele>52.66</ele>
        <time>2025-03-15T13:07:57.953Z</time>
      </trkpt>
      <trkpt lat="43.33782" lon="6.56192">
        <ele>52.78</ele>
        <time>2025-03-15T13:07:59.078Z</time>
      </trkpt>
      <trkpt lat="43.33784" lon="6.56193">
        <ele>52.9</ele>
        <time>2025-03-15T13:07:59.946Z</time>
      </trkpt>
      <trkpt lat="43.33787" lon="6.56194">
        <ele>53.03</ele>
        <time>2025-03-15T13:08:01.024Z</time>
      </trkpt>
      <trkpt lat="43.33792" lon="6.56196">
        <ele>53.17</ele>
        <time>2025-03-15T13:08:03.058Z</time>
      </trkpt>
      <trkpt lat="43.33801" lon="6.56205">
        <ele>53.33</ele>
        <time>2025-03-15T13:08:06.665Z</time>
      </trkpt>
      <trkpt lat="43.338" lon="6.56219">
        <ele>53.46</ele>
        <time>2025-03-15T13:08:10.267Z</time>
      </trkpt>
      <trkpt lat="43.33808" lon="6.56238">
        <ele>53.6</ele>
        <time>2025-03-15T13:08:15.460Z</time>
      </trkpt>
      <trkpt lat="43.33811" lon="6.56239">
        <ele>53.74</ele>
        <time>2025-03-15T13:08:16.714Z</time>
      </trkpt>
      <trkpt lat="43.33814" lon="6.56239">
        <ele>53.88</ele>
        <time>2025-03-15T13:08:17.915Z</time>
      </trkpt>
      <trkpt lat="43.33818" lon="6.56238">
        <ele>54.04</ele>
        <time>2025-03-15T13:08:19.218Z</time>
      </trkpt>
      <trkpt lat="43.33821" lon="6.56237">
        <ele>54.2</ele>
        <time>2025-03-15T13:08:20.494Z</time>
      </trkpt>
      <trkpt lat="43.33827" lon="6.56237">
        <ele>54.37</ele>
        <time>2025-03-15T13:08:22.796Z</time>
      </trkpt>
      <trkpt lat="43.33838" lon="6.5624">
        <ele>54.57</ele>
        <time>2025-03-15T13:08:26.356Z</time>
      </trkpt>
      <trkpt lat="43.33844" lon="6.56242">
        <ele>54.75</ele>
        <time>2025-03-15T13:08:28.602Z</time>
      </trkpt>
      <trkpt lat="43.33847" lon="6.56244">
        <ele>54.94</ele>
        <time>2025-03-15T13:08:29.840Z</time>
      </trkpt>
      <trkpt lat="43.3385" lon="6.56245">
        <ele>55.12</ele>
        <time>2025-03-15T13:08:31.137Z</time>
      </trkpt>
      <trkpt lat="43.33853" lon="6.56245">
        <ele>55.31</ele>
        <time>2025-03-15T13:08:32.463Z</time>
      </trkpt>
      <trkpt lat="43.33857" lon="6.56246">
        <ele>55.5</ele>
        <time>2025-03-15T13:08:34.008Z</time>
      </trkpt>
      <trkpt lat="43.33862" lon="6.56247">
        <ele>55.71</ele>
        <time>2025-03-15T13:08:35.788Z</time>
      </trkpt>
      <trkpt lat="43.33887" lon="6.56247">
        <ele>55.95</ele>
        <time>2025-03-15T13:08:44.169Z</time>
      </trkpt>
      <trkpt lat="43.33893" lon="6.56253">
        <ele>56.15</ele>
        <time>2025-03-15T13:08:46.854Z</time>
      </trkpt>
      <trkpt lat="43.33899" lon="6.5626">
        <ele>56.36</ele>
        <time>2025-03-15T13:08:49.513Z</time>
      </trkpt>
      <trkpt lat="43.33917" lon="6.56278">
        <ele>56.58</ele>
        <time>2025-03-15T13:08:57.075Z</time>
      </trkpt>
      <trkpt lat="43.33935" lon="6.5629">
        <ele>56.81</ele>
        <time>2025-03-15T13:09:03.680Z</time>
      </trkpt>
      <trkpt lat="43.33945" lon="6.56303">
        <ele>57.05</ele>
        <time>2025-03-15T13:09:08.468Z</time>
      </trkpt>
      <trkpt lat="43.33948" lon="6.56305">
        <ele>57.3</ele>
        <time>2025-03-15T13:09:09.857Z</time>
      </trkpt>
      <trkpt lat="43.33951" lon="6.56308">
        <ele>57.56</ele>
        <time>2025-03-15T13:09:11.339Z</time>
      </trkpt>
      <trkpt lat="43.33953" lon="6.56312">
        <ele>57.85</ele>
        <time>2025-03-15T13:09:12.914Z</time>
      </trkpt>
      <trkpt lat="43.33956" lon="6.56317">
        <ele>58.15</ele>
        <time>2025-03-15T13:09:14.574Z</time>
      </trkpt>
      <trkpt lat="43.33963" lon="6.56329">
        <ele>58.48</ele>
        <time>2025-03-15T13:09:18.780Z</time>
      </trkpt>
      <trkpt lat="43.33984" lon="6.56351">
        <ele>58.8</ele>
        <time>2025-03-15T13:09:27.490Z</time>
      </trkpt>
      <trkpt lat="43.34002" lon="6.56362">
        <ele>59.15</ele>
        <time>2025-03-15T13:09:34.320Z</time>
      </trkpt>
      <trkpt lat="43.3403" lon="6.56393">
        <ele>59.56</ele>
        <time>2025-03-15T13:09:46.222Z</time>
      </trkpt>
      <trkpt lat="43.34048" lon="6.56417">
        <ele>60.04</ele>
        <time>2025-03-15T13:09:54.913Z</time>
      </trkpt>
      <trkpt lat="43.34056" lon="6.56426">
        <ele>60.41</ele>
        <time>2025-03-15T13:09:58.769Z</time>
      </trkpt>
      <trkpt lat="43.34058" lon="6.56429">
        <ele>60.76</ele>
        <time>2025-03-15T13:10:00.225Z</time>
      </trkpt>
      <trkpt lat="43.3406" lon="6.56432">
        <ele>61.12</ele>
        <time>2025-03-15T13:10:01.655Z</time>
      </trkpt>
      <trkpt lat="43.34063" lon="6.56435">
        <ele>61.47</ele>
        <time>2025-03-15T13:10:03.082Z</time>
      </trkpt>
      <trkpt lat="43.34065" lon="6.56438">
        <ele>61.83</ele>
        <time>2025-03-15T13:10:04.508Z</time>
      </trkpt>
      <trkpt lat="43.34072" lon="6.56444">
        <ele>62.19</ele>
        <time>2025-03-15T13:10:07.803Z</time>
      </trkpt>
      <trkpt lat="43.34079" lon="6.56449">
        <ele>62.56</ele>
        <time>2025-03-15T13:10:10.710Z</time>
      </trkpt>
      <trkpt lat="43.34081" lon="6.56451">
        <ele>62.91</ele>
        <time>2025-03-15T13:10:11.970Z</time>
      </trkpt>
      <trkpt lat="43.34081" lon="6.56455">
        <ele>63.26</ele>
        <time>2025-03-15T13:10:13.345Z</time>
      </trkpt>
      <trkpt lat="43.3408" lon="6.56458">
        <ele>63.61</ele>
        <time>2025-03-15T13:10:14.746Z</time>
      </trkpt>
      <trkpt lat="43.3408" lon="6.56463">
        <ele>63.97</ele>
        <time>2025-03-15T13:10:16.224Z</time>
      </trkpt>
      <trkpt lat="43.34082" lon="6.56488">
        <ele>64.33</ele>
        <time>2025-03-15T13:10:22.635Z</time>
      </trkpt>
      <trkpt lat="43.34091" lon="6.56521">
        <ele>64.69</ele>
        <time>2025-03-15T13:10:31.184Z</time>
      </trkpt>
      <trkpt lat="43.341" lon="6.56546">
        <ele>65.09</ele>
        <time>2025-03-15T13:10:38.325Z</time>
      </trkpt>
      <trkpt lat="43.34105" lon="6.56562">
        <ele>65.48</ele>
        <time>2025-03-15T13:10:42.787Z</time>
      </trkpt>
      <trkpt lat="43.34115" lon="6.56594">
        <ele>65.87</ele>
        <time>2025-03-15T13:10:51.400Z</time>
      </trkpt>
      <trkpt lat="43.34117" lon="6.56599">
        <ele>66.24</ele>
        <time>2025-03-15T13:10:53.180Z</time>
      </trkpt>
      <trkpt lat="43.34118" lon="6.56604">
        <ele>66.61</ele>
        <time>2025-03-15T13:10:54.978Z</time>
      </trkpt>
      <trkpt lat="43.3412" lon="6.56609">
        <ele>66.98</ele>
        <time>2025-03-15T13:10:56.789Z</time>
      </trkpt>
      <trkpt lat="43.34122" lon="6.56615">
        <ele>67.33</ele>
        <time>2025-03-15T13:10:58.570Z</time>
      </trkpt>
      <trkpt lat="43.34133" lon="6.56656">
        <ele>67.77</ele>
        <time>2025-03-15T13:11:09.431Z</time>
      </trkpt>
      <trkpt lat="43.34141" lon="6.56692">
        <ele>68.18</ele>
        <time>2025-03-15T13:11:18.624Z</time>
      </trkpt>
      <trkpt lat="43.34142" lon="6.56697">
        <ele>68.47</ele>
        <time>2025-03-15T13:11:20.337Z</time>
      </trkpt>
      <trkpt lat="43.34142" lon="6.56703">
        <ele>68.72</ele>
        <time>2025-03-15T13:11:22.025Z</time>
      </trkpt>
      <trkpt lat="43.34143" lon="6.56709">
        <ele>68.94</ele>
        <time>2025-03-15T13:11:23.705Z</time>
      </trkpt>
      <trkpt lat="43.34143" lon="6.56716">
        <ele>69.13</ele>
        <time>2025-03-15T13:11:25.390Z</time>
      </trkpt>
      <trkpt lat="43.34143" lon="6.56739">
        <ele>69.31</ele>
        <time>2025-03-15T13:11:31.210Z</time>
      </trkpt>
      <trkpt lat="43.34142" lon="6.56745">
        <ele>69.43</ele>
        <time>2025-03-15T13:11:32.719Z</time>
      </trkpt>
      <trkpt lat="43.34137" lon="6.56754">
        <ele>69.53</ele>
        <time>2025-03-15T13:11:35.470Z</time>
      </trkpt>
      <trkpt lat="43.34133" lon="6.56751">
        <ele>69.56</ele>
        <time>2025-03-15T13:11:37.126Z</time>
      </trkpt>
      <trkpt lat="43.34123" lon="6.56739">
        <ele>69.54</ele>
        <time>2025-03-15T13:11:41.189Z</time>
      </trkpt>
      <trkpt lat="43.34116" lon="6.56732">
        <ele>69.49</ele>
        <time>2025-03-15T13:11:44.017Z</time>
      </trkpt>
      <trkpt lat="43.34088" lon="6.5671">
        <ele>69.27</ele>
        <time>2025-03-15T13:11:54.394Z</time>
      </trkpt>
      <trkpt lat="43.34083" lon="6.56707">
        <ele>69.13</ele>
        <time>2025-03-15T13:11:55.946Z</time>
      </trkpt>
      <trkpt lat="43.34072" lon="6.56703">
        <ele>68.94</ele>
        <time>2025-03-15T13:11:59.486Z</time>
      </trkpt>
      <trkpt lat="43.34061" lon="6.56701">
        <ele>68.75</ele>
        <time>2025-03-15T13:12:02.858Z</time>
      </trkpt>
      <trkpt lat="43.34051" lon="6.56702">
        <ele>68.56</ele>
        <time>2025-03-15T13:12:06.125Z</time>
      </trkpt>
      <trkpt lat="43.34046" lon="6.56703">
        <ele>68.38</ele>
        <time>2025-03-15T13:12:07.616Z</time>
      </trkpt>
      <trkpt lat="43.34041" lon="6.56704">
        <ele>68.21</ele>
        <time>2025-03-15T13:12:09.042Z</time>
      </trkpt>
      <trkpt lat="43.34036" lon="6.56705">
        <ele>68.03</ele>
        <time>2025-03-15T13:12:10.456Z</time>
      </trkpt>
      <trkpt lat="43.34031" lon="6.56706">
        <ele>67.84</ele>
        <time>2025-03-15T13:12:11.822Z</time>
      </trkpt>
      <trkpt lat="43.34027" lon="6.56709">
        <ele>67.65</ele>
        <time>2025-03-15T13:12:13.146Z</time>
      </trkpt>
      <trkpt lat="43.34023" lon="6.56712">
        <ele>67.47</ele>
        <time>2025-03-15T13:12:14.530Z</time>
      </trkpt>
      <trkpt lat="43.34019" lon="6.56716">
        <ele>67.3</ele>
        <time>2025-03-15T13:12:15.929Z</time>
      </trkpt>
      <trkpt lat="43.34012" lon="6.56723">
        <ele>67.14</ele>
        <time>2025-03-15T13:12:18.626Z</time>
      </trkpt>
      <trkpt lat="43.34003" lon="6.56732">
        <ele>66.98</ele>
        <time>2025-03-15T13:12:22.022Z</time>
      </trkpt>
      <trkpt lat="43.3399" lon="6.56738">
        <ele>66.8</ele>
        <time>2025-03-15T13:12:26.452Z</time>
      </trkpt>
      <trkpt lat="43.3398" lon="6.56754">
        <ele>66.63</ele>
        <time>2025-03-15T13:12:31.080Z</time>
      </trkpt>
      <trkpt lat="43.33979" lon="6.56757">
        <ele>66.48</ele>
        <time>2025-03-15T13:12:31.848Z</time>
      </trkpt>
      <trkpt lat="43.33977" lon="6.5676">
        <ele>66.33</ele>
        <time>2025-03-15T13:12:32.700Z</time>
      </trkpt>
      <trkpt lat="43.33968" lon="6.56768">
        <ele>66.21</ele>
        <time>2025-03-15T13:12:36.132Z</time>
      </trkpt>
      <trkpt lat="43.33961" lon="6.56775">
        <ele>66.09</ele>
        <time>2025-03-15T13:12:38.543Z</time>
      </trkpt>
      <trkpt lat="43.33955" lon="6.56781">
        <ele>65.97</ele>
        <time>2025-03-15T13:12:40.978Z</time>
      </trkpt>
      <trkpt lat="43.33948" lon="6.56787">
        <ele>65.84</ele>
        <time>2025-03-15T13:12:43.575Z</time>
      </trkpt>
      <trkpt lat="43.33936" lon="6.56801">
        <ele>65.69</ele>
        <time>2025-03-15T13:12:48.516Z</time>
      </trkpt>
      <trkpt lat="43.3393" lon="6.56808">
        <ele>65.6</ele>
        <time>2025-03-15T13:12:50.942Z</time>
      </trkpt>
      <trkpt lat="43.33916" lon="6.56826">
        <ele>65.52</ele>
        <time>2025-03-15T13:12:57.182Z</time>
      </trkpt>
      <trkpt lat="43.33913" lon="6.5683">
        <ele>65.45</ele>
        <time>2025-03-15T13:12:58.466Z</time>
      </trkpt>
      <trkpt lat="43.3391" lon="6.56834">
        <ele>65.38</ele>
        <time>2025-03-15T13:12:59.782Z</time>
      </trkpt>
      <trkpt lat="43.33907" lon="6.56838">
        <ele>65.31</ele>
        <time>2025-03-15T13:13:01.096Z</time>
      </trkpt>
      <trkpt lat="43.33904" lon="6.56842">
        <ele>65.24</ele>
        <time>2025-03-15T13:13:02.299Z</time>
      </trkpt>
      <trkpt lat="43.33902" lon="6.56847">
        <ele>65.19</ele>
        <time>2025-03-15T13:13:03.617Z</time>
      </trkpt>
      <trkpt lat="43.33897" lon="6.56858">
        <ele>65.14</ele>
        <time>2025-03-15T13:13:06.506Z</time>
      </trkpt>
      <trkpt lat="43.33893" lon="6.5687">
        <ele>65.11</ele>
        <time>2025-03-15T13:13:09.537Z</time>
      </trkpt>
      <trkpt lat="43.33891" lon="6.56877">
        <ele>65.08</ele>
        <time>2025-03-15T13:13:11.274Z</time>
      </trkpt>
      <trkpt lat="43.33889" lon="6.56884">
        <ele>65.05</ele>
        <time>2025-03-15T13:13:13.156Z</time>
      </trkpt>
      <trkpt lat="43.33887" lon="6.56891">
        <ele>65.03</ele>
        <time>2025-03-15T13:13:14.942Z</time>
      </trkpt>
      <trkpt lat="43.33884" lon="6.56898">
        <ele>65.02</ele>
        <time>2025-03-15T13:13:16.648Z</time>
      </trkpt>
      <trkpt lat="43.33881" lon="6.56904">
        <ele>65.03</ele>
        <time>2025-03-15T13:13:18.430Z</time>
      </trkpt>
      <trkpt lat="43.33878" lon="6.5691">
        <ele>65.04</ele>
        <time>2025-03-15T13:13:20.243Z</time>
      </trkpt>
      <trkpt lat="43.33875" lon="6.56916">
        <ele>65.04</ele>
        <time>2025-03-15T13:13:21.866Z</time>
      </trkpt>
      <trkpt lat="43.33873" lon="6.56921">
        <ele>65.06</ele>
        <time>2025-03-15T13:13:23.338Z</time>
      </trkpt>
      <trkpt lat="43.3387" lon="6.56926">
        <ele>65.08</ele>
        <time>2025-03-15T13:13:24.774Z</time>
      </trkpt>
      <trkpt lat="43.33863" lon="6.5694">
        <ele>65.1</ele>
        <time>2025-03-15T13:13:28.888Z</time>
      </trkpt>
      <trkpt lat="43.33858" lon="6.56949">
        <ele>65.14</ele>
        <time>2025-03-15T13:13:31.574Z</time>
      </trkpt>
      <trkpt lat="43.33854" lon="6.56959">
        <ele>65.2</ele>
        <time>2025-03-15T13:13:34.288Z</time>
      </trkpt>
      <trkpt lat="43.33848" lon="6.56974">
        <ele>65.26</ele>
        <time>2025-03-15T13:13:38.404Z</time>
      </trkpt>
      <trkpt lat="43.33846" lon="6.56979">
        <ele>65.32</ele>
        <time>2025-03-15T13:13:39.791Z</time>
      </trkpt>
      <trkpt lat="43.33844" lon="6.56984">
        <ele>65.38</ele>
        <time>2025-03-15T13:13:41.126Z</time>
      </trkpt>
      <trkpt lat="43.33843" lon="6.56988">
        <ele>65.45</ele>
        <time>2025-03-15T13:13:42.421Z</time>
      </trkpt>
      <trkpt lat="43.33841" lon="6.56993">
        <ele>65.52</ele>
        <time>2025-03-15T13:13:43.761Z</time>
      </trkpt>
      <trkpt lat="43.3384" lon="6.56999">
        <ele>65.59</ele>
        <time>2025-03-15T13:13:45.139Z</time>
      </trkpt>
      <trkpt lat="43.33837" lon="6.57014">
        <ele>65.67</ele>
        <time>2025-03-15T13:13:49.078Z</time>
      </trkpt>
      <trkpt lat="43.33835" lon="6.57019">
        <ele>65.7</ele>
        <time>2025-03-15T13:13:50.288Z</time>
      </trkpt>
      <trkpt lat="43.33829" lon="6.57031">
        <ele>65.68</ele>
        <time>2025-03-15T13:13:53.753Z</time>
      </trkpt>
      <trkpt lat="43.33823" lon="6.57035">
        <ele>65.71</ele>
        <time>2025-03-15T13:13:55.989Z</time>
      </trkpt>
      <trkpt lat="43.33816" lon="6.57034">
        <ele>65.69</ele>
        <time>2025-03-15T13:13:58.236Z</time>
      </trkpt>
      <trkpt lat="43.33812" lon="6.57032">
        <ele>65.65</ele>
        <time>2025-03-15T13:13:59.485Z</time>
      </trkpt>
      <trkpt lat="43.33808" lon="6.57029">
        <ele>65.59</ele>
        <time>2025-03-15T13:14:00.798Z</time>
      </trkpt>
      <trkpt lat="43.338" lon="6.57023">
        <ele>65.44</ele>
        <time>2025-03-15T13:14:03.718Z</time>
      </trkpt>
      <trkpt lat="43.33797" lon="6.57014">
        <ele>65.35</ele>
        <time>2025-03-15T13:14:05.894Z</time>
      </trkpt>
      <trkpt lat="43.33796" lon="6.57007">
        <ele>65.24</ele>
        <time>2025-03-15T13:14:07.538Z</time>
      </trkpt>
      <trkpt lat="43.33795" lon="6.57001">
        <ele>65.13</ele>
        <time>2025-03-15T13:14:08.910Z</time>
      </trkpt>
      <trkpt lat="43.33794" lon="6.56999">
        <ele>65.02</ele>
        <time>2025-03-15T13:14:09.355Z</time>
      </trkpt>
      <trkpt lat="43.33794" lon="6.56997">
        <ele>64.91</ele>
        <time>2025-03-15T13:14:09.707Z</time>
      </trkpt>
      <trkpt lat="43.33794" lon="6.56993">
        <ele>64.78</ele>
        <time>2025-03-15T13:14:10.535Z</time>
      </trkpt>
      <trkpt lat="43.33794" lon="6.56992">
        <ele>64.67</ele>
        <time>2025-03-15T13:14:10.869Z</time>
      </trkpt>
      <trkpt lat="43.33795" lon="6.56988">
        <ele>64.54</ele>
        <time>2025-03-15T13:14:11.580Z</time>
      </trkpt>
      <trkpt lat="43.33796" lon="6.56987">
        <ele>64.42</ele>
        <time>2025-03-15T13:14:11.962Z</time>
      </trkpt>
      <trkpt lat="43.33799" lon="6.56983">
        <ele>64.27</ele>
        <time>2025-03-15T13:14:13.254Z</time>
      </trkpt>
      <trkpt lat="43.33807" lon="6.56964">
        <ele>64.12</ele>
        <time>2025-03-15T13:14:18.274Z</time>
      </trkpt>
      <trkpt lat="43.33807" lon="6.56959">
        <ele>64.02</ele>
        <time>2025-03-15T13:14:19.315Z</time>
      </trkpt>
      <trkpt lat="43.33806" lon="6.56955">
        <ele>63.92</ele>
        <time>2025-03-15T13:14:20.309Z</time>
      </trkpt>
      <trkpt lat="43.33803" lon="6.56951">
        <ele>63.83</ele>
        <time>2025-03-15T13:14:21.393Z</time>
      </trkpt>
      <trkpt lat="43.338" lon="6.56949">
        <ele>63.73</ele>
        <time>2025-03-15T13:14:22.464Z</time>
      </trkpt>
      <trkpt lat="43.33797" lon="6.56948">
        <ele>63.63</ele>
        <time>2025-03-15T13:14:23.504Z</time>
      </trkpt>
      <trkpt lat="43.33793" lon="6.56948">
        <ele>63.53</ele>
        <time>2025-03-15T13:14:24.629Z</time>
      </trkpt>
      <trkpt lat="43.33789" lon="6.56948">
        <ele>63.42</ele>
        <time>2025-03-15T13:14:25.782Z</time>
      </trkpt>
      <trkpt lat="43.33781" lon="6.56949">
        <ele>63.3</ele>
        <time>2025-03-15T13:14:28.335Z</time>
      </trkpt>
      <trkpt lat="43.33773" lon="6.56949">
        <ele>63.17</ele>
        <time>2025-03-15T13:14:30.650Z</time>
      </trkpt>
      <trkpt lat="43.3377" lon="6.56948">
        <ele>63</ele>
        <time>2025-03-15T13:14:31.693Z</time>
      </trkpt>
      <trkpt lat="43.33756" lon="6.56939">
        <ele>62.77</ele>
        <time>2025-03-15T13:14:36.301Z</time>
      </trkpt>
      <trkpt lat="43.33752" lon="6.56939">
        <ele>62.55</ele>
        <time>2025-03-15T13:14:37.498Z</time>
      </trkpt>
      <trkpt lat="43.33733" lon="6.5694">
        <ele>62.28</ele>
        <time>2025-03-15T13:14:43.488Z</time>
      </trkpt>
      <trkpt lat="43.33704" lon="6.56943">
        <ele>61.98</ele>
        <time>2025-03-15T13:14:52.549Z</time>
      </trkpt>
      <trkpt lat="43.33699" lon="6.5694">
        <ele>61.63</ele>
        <time>2025-03-15T13:14:54.090Z</time>
      </trkpt>
      <trkpt lat="43.33695" lon="6.56935">
        <ele>61.23</ele>
        <time>2025-03-15T13:14:55.535Z</time>
      </trkpt>
      <trkpt lat="43.33693" lon="6.5693">
        <ele>60.8</ele>
        <time>2025-03-15T13:14:56.939Z</time>
      </trkpt>
      <trkpt lat="43.33691" lon="6.56923">
        <ele>60.33</ele>
        <time>2025-03-15T13:14:58.355Z</time>
      </trkpt>
      <trkpt lat="43.33687" lon="6.56905">
        <ele>59.79</ele>
        <time>2025-03-15T13:15:02.446Z</time>
      </trkpt>
      <trkpt lat="43.33682" lon="6.56891">
        <ele>59.26</ele>
        <time>2025-03-15T13:15:05.601Z</time>
      </trkpt>
      <trkpt lat="43.33679" lon="6.56884">
        <ele>58.74</ele>
        <time>2025-03-15T13:15:07.207Z</time>
      </trkpt>
      <trkpt lat="43.3367" lon="6.56864">
        <ele>58.15</ele>
        <time>2025-03-15T13:15:12.378Z</time>
      </trkpt>
      <trkpt lat="43.33667" lon="6.56858">
        <ele>57.58</ele>
        <time>2025-03-15T13:15:13.916Z</time>
      </trkpt>
      <trkpt lat="43.33663" lon="6.56852">
        <ele>57</ele>
        <time>2025-03-15T13:15:15.368Z</time>
      </trkpt>
      <trkpt lat="43.3366" lon="6.56847">
        <ele>56.39</ele>
        <time>2025-03-15T13:15:16.747Z</time>
      </trkpt>
      <trkpt lat="43.33657" lon="6.56842">
        <ele>55.77</ele>
        <time>2025-03-15T13:15:18.214Z</time>
      </trkpt>
      <trkpt lat="43.33653" lon="6.56836">
        <ele>55.14</ele>
        <time>2025-03-15T13:15:19.795Z</time>
      </trkpt>
      <trkpt lat="43.33649" lon="6.56821">
        <ele>54.43</ele>
        <time>2025-03-15T13:15:23.154Z</time>
      </trkpt>
      <trkpt lat="43.33646" lon="6.56813">
        <ele>53.78</ele>
        <time>2025-03-15T13:15:24.954Z</time>
      </trkpt>
      <trkpt lat="43.33645" lon="6.56804">
        <ele>53.13</ele>
        <time>2025-03-15T13:15:26.812Z</time>
      </trkpt>
      <trkpt lat="43.33643" lon="6.56796">
        <ele>52.49</ele>
        <time>2025-03-15T13:15:28.615Z</time>
      </trkpt>
      <trkpt lat="43.33641" lon="6.56787">
        <ele>51.87</ele>
        <time>2025-03-15T13:15:30.421Z</time>
      </trkpt>
      <trkpt lat="43.33637" lon="6.5678">
        <ele>51.25</ele>
        <time>2025-03-15T13:15:32.343Z</time>
      </trkpt>
      <trkpt lat="43.33633" lon="6.56772">
        <ele>50.69</ele>
        <time>2025-03-15T13:15:34.345Z</time>
      </trkpt>
      <trkpt lat="43.33629" lon="6.56765">
        <ele>50.16</ele>
        <time>2025-03-15T13:15:36.141Z</time>
      </trkpt>
      <trkpt lat="43.33625" lon="6.56759">
        <ele>49.66</ele>
        <time>2025-03-15T13:15:37.954Z</time>
      </trkpt>
      <trkpt lat="43.33621" lon="6.56752">
        <ele>49.19</ele>
        <time>2025-03-15T13:15:39.731Z</time>
      </trkpt>
      <trkpt lat="43.33617" lon="6.56744">
        <ele>48.71</ele>
        <time>2025-03-15T13:15:41.550Z</time>
      </trkpt>
      <trkpt lat="43.33614" lon="6.56737">
        <ele>48.26</ele>
        <time>2025-03-15T13:15:43.379Z</time>
      </trkpt>
      <trkpt lat="43.33611" lon="6.5673">
        <ele>47.85</ele>
        <time>2025-03-15T13:15:45.147Z</time>
      </trkpt>
      <trkpt lat="43.33604" lon="6.56716">
        <ele>47.47</ele>
        <time>2025-03-15T13:15:48.652Z</time>
      </trkpt>
      <trkpt lat="43.336" lon="6.56711">
        <ele>47.16</ele>
        <time>2025-03-15T13:15:50.207Z</time>
      </trkpt>
      <trkpt lat="43.33595" lon="6.56709">
        <ele>46.9</ele>
        <time>2025-03-15T13:15:51.692Z</time>
      </trkpt>
      <trkpt lat="43.33589" lon="6.56709">
        <ele>46.68</ele>
        <time>2025-03-15T13:15:53.337Z</time>
      </trkpt>
      <trkpt lat="43.33583" lon="6.56711">
        <ele>46.53</ele>
        <time>2025-03-15T13:15:55.109Z</time>
      </trkpt>
      <trkpt lat="43.33578" lon="6.56714">
        <ele>46.41</ele>
        <time>2025-03-15T13:15:56.950Z</time>
      </trkpt>
      <trkpt lat="43.33572" lon="6.56717">
        <ele>46.32</ele>
        <time>2025-03-15T13:15:58.811Z</time>
      </trkpt>
      <trkpt lat="43.3356" lon="6.5672">
        <ele>46.29</ele>
        <time>2025-03-15T13:16:02.871Z</time>
      </trkpt>
      <trkpt lat="43.33554" lon="6.56722">
        <ele>46.28</ele>
        <time>2025-03-15T13:16:04.838Z</time>
      </trkpt>
      <trkpt lat="43.33548" lon="6.56723">
        <ele>46.3</ele>
        <time>2025-03-15T13:16:06.742Z</time>
      </trkpt>
      <trkpt lat="43.33543" lon="6.56724">
        <ele>46.35</ele>
        <time>2025-03-15T13:16:08.577Z</time>
      </trkpt>
      <trkpt lat="43.33534" lon="6.56729">
        <ele>46.44</ele>
        <time>2025-03-15T13:16:11.801Z</time>
      </trkpt>
      <trkpt lat="43.33524" lon="6.56735">
        <ele>46.53</ele>
        <time>2025-03-15T13:16:15.293Z</time>
      </trkpt>
      <trkpt lat="43.33522" lon="6.56737">
        <ele>46.67</ele>
        <time>2025-03-15T13:16:16.411Z</time>
      </trkpt>
      <trkpt lat="43.3352" lon="6.56741">
        <ele>46.85</ele>
        <time>2025-03-15T13:16:17.624Z</time>
      </trkpt>
      <trkpt lat="43.33519" lon="6.56747">
        <ele>47.05</ele>
        <time>2025-03-15T13:16:19.286Z</time>
      </trkpt>
      <trkpt lat="43.3352" lon="6.56749">
        <ele>47.25</ele>
        <time>2025-03-15T13:16:20.147Z</time>
      </trkpt>
      <trkpt lat="43.33524" lon="6.56753">
        <ele>47.47</ele>
        <time>2025-03-15T13:16:21.929Z</time>
      </trkpt>
      <trkpt lat="43.33525" lon="6.56756">
        <ele>47.71</ele>
        <time>2025-03-15T13:16:22.986Z</time>
      </trkpt>
      <trkpt lat="43.33524" lon="6.56758">
        <ele>47.95</ele>
        <time>2025-03-15T13:16:23.884Z</time>
      </trkpt>
      <trkpt lat="43.33523" lon="6.5676">
        <ele>48.21</ele>
        <time>2025-03-15T13:16:24.813Z</time>
      </trkpt>
      <trkpt lat="43.33522" lon="6.56768">
        <ele>48.5</ele>
        <time>2025-03-15T13:16:27.055Z</time>
      </trkpt>
      <trkpt lat="43.33523" lon="6.5677">
        <ele>48.79</ele>
        <time>2025-03-15T13:16:28.014Z</time>
      </trkpt>
      <trkpt lat="43.33523" lon="6.56772">
        <ele>49.1</ele>
        <time>2025-03-15T13:16:29.002Z</time>
      </trkpt>
      <trkpt lat="43.33524" lon="6.56773">
        <ele>49.41</ele>
        <time>2025-03-15T13:16:29.991Z</time>
      </trkpt>
      <trkpt lat="43.33525" lon="6.56778">
        <ele>49.75</ele>
        <time>2025-03-15T13:16:31.667Z</time>
      </trkpt>
      <trkpt lat="43.33525" lon="6.56781">
        <ele>50.1</ele>
        <time>2025-03-15T13:16:32.954Z</time>
      </trkpt>
      <trkpt lat="43.33523" lon="6.56793">
        <ele>50.49</ele>
        <time>2025-03-15T13:16:36.302Z</time>
      </trkpt>
      <trkpt lat="43.33523" lon="6.56796">
        <ele>50.86</ele>
        <time>2025-03-15T13:16:37.526Z</time>
      </trkpt>
      <trkpt lat="43.33523" lon="6.56799">
        <ele>51.24</ele>
        <time>2025-03-15T13:16:38.804Z</time>
      </trkpt>
      <trkpt lat="43.33524" lon="6.56802">
        <ele>51.64</ele>
        <time>2025-03-15T13:16:40.125Z</time>
      </trkpt>
      <trkpt lat="43.33525" lon="6.56804">
        <ele>52.04</ele>
        <time>2025-03-15T13:16:41.440Z</time>
      </trkpt>
      <trkpt lat="43.33526" lon="6.56809">
        <ele>52.46</ele>
        <time>2025-03-15T13:16:43.231Z</time>
      </trkpt>
      <trkpt lat="43.33528" lon="6.56814">
        <ele>52.89</ele>
        <time>2025-03-15T13:16:44.958Z</time>
      </trkpt>
      <trkpt lat="43.33529" lon="6.56817">
        <ele>53.32</ele>
        <time>2025-03-15T13:16:46.585Z</time>
      </trkpt>
      <trkpt lat="43.33532" lon="6.56824">
        <ele>53.78</ele>
        <time>2025-03-15T13:16:48.958Z</time>
      </trkpt>
      <trkpt lat="43.33533" lon="6.56826">
        <ele>54.2</ele>
        <time>2025-03-15T13:16:50.363Z</time>
      </trkpt>
      <trkpt lat="43.33534" lon="6.56836">
        <ele>54.68</ele>
        <time>2025-03-15T13:16:53.432Z</time>
      </trkpt>
      <trkpt lat="43.33534" lon="6.56839">
        <ele>55.1</ele>
        <time>2025-03-15T13:16:54.773Z</time>
      </trkpt>
      <trkpt lat="43.33534" lon="6.56841">
        <ele>55.52</ele>
        <time>2025-03-15T13:16:56.116Z</time>
      </trkpt>
      <trkpt lat="43.33535" lon="6.56843">
        <ele>55.93</ele>
        <time>2025-03-15T13:16:57.422Z</time>
      </trkpt>
      <trkpt lat="43.33535" lon="6.56845">
        <ele>56.34</ele>
        <time>2025-03-15T13:16:58.775Z</time>
      </trkpt>
      <trkpt lat="43.33535" lon="6.56849">
        <ele>56.76</ele>
        <time>2025-03-15T13:17:00.264Z</time>
      </trkpt>
      <trkpt lat="43.33535" lon="6.56854">
        <ele>57.18</ele>
        <time>2025-03-15T13:17:02.099Z</time>
      </trkpt>
      <trkpt lat="43.33537" lon="6.56861">
        <ele>57.6</ele>
        <time>2025-03-15T13:17:04.149Z</time>
      </trkpt>
      <trkpt lat="43.33537" lon="6.56863">
        <ele>57.99</ele>
        <time>2025-03-15T13:17:05.395Z</time>
      </trkpt>
      <trkpt lat="43.33538" lon="6.56865">
        <ele>58.37</ele>
        <time>2025-03-15T13:17:06.608Z</time>
      </trkpt>
      <trkpt lat="43.33539" lon="6.56866">
        <ele>58.75</ele>
        <time>2025-03-15T13:17:07.831Z</time>
      </trkpt>
      <trkpt lat="43.3354" lon="6.56868">
        <ele>59.11</ele>
        <time>2025-03-15T13:17:09.023Z</time>
      </trkpt>
      <trkpt lat="43.33541" lon="6.56869">
        <ele>59.48</ele>
        <time>2025-03-15T13:17:10.248Z</time>
      </trkpt>
      <trkpt lat="43.33541" lon="6.5687">
        <ele>59.84</ele>
        <time>2025-03-15T13:17:11.473Z</time>
      </trkpt>
      <trkpt lat="43.33541" lon="6.56872">
        <ele>60.19</ele>
        <time>2025-03-15T13:17:12.611Z</time>
      </trkpt>
      <trkpt lat="43.33541" lon="6.56874">
        <ele>60.55</ele>
        <time>2025-03-15T13:17:13.793Z</time>
      </trkpt>
      <trkpt lat="43.33542" lon="6.56875">
        <ele>60.91</ele>
        <time>2025-03-15T13:17:15.033Z</time>
      </trkpt>
      <trkpt lat="43.33542" lon="6.56876">
        <ele>61.26</ele>
        <time>2025-03-15T13:17:16.173Z</time>
      </trkpt>
      <trkpt lat="43.33543" lon="6.56879">
        <ele>61.62</ele>
        <time>2025-03-15T13:17:17.348Z</time>
      </trkpt>
      <trkpt lat="43.33542" lon="6.56883">
        <ele>61.98</ele>
        <time>2025-03-15T13:17:18.931Z</time>
      </trkpt>
      <trkpt lat="43.33539" lon="6.56891">
        <ele>62.35</ele>
        <time>2025-03-15T13:17:21.498Z</time>
      </trkpt>
      <trkpt lat="43.33536" lon="6.56896">
        <ele>62.7</ele>
        <time>2025-03-15T13:17:23.325Z</time>
      </trkpt>
      <trkpt lat="43.33533" lon="6.56909">
        <ele>63.07</ele>
        <time>2025-03-15T13:17:26.882Z</time>
      </trkpt>
      <trkpt lat="43.33532" lon="6.5692">
        <ele>63.43</ele>
        <time>2025-03-15T13:17:29.822Z</time>
      </trkpt>
      <trkpt lat="43.33531" lon="6.56922">
        <ele>63.73</ele>
        <time>2025-03-15T13:17:30.942Z</time>
      </trkpt>
      <trkpt lat="43.3353" lon="6.56925">
        <ele>64.02</ele>
        <time>2025-03-15T13:17:31.993Z</time>
      </trkpt>
      <trkpt lat="43.3353" lon="6.56928">
        <ele>64.29</ele>
        <time>2025-03-15T13:17:33.044Z</time>
      </trkpt>
      <trkpt lat="43.3353" lon="6.56931">
        <ele>64.54</ele>
        <time>2025-03-15T13:17:34.081Z</time>
      </trkpt>
      <trkpt lat="43.3353" lon="6.56933">
        <ele>64.76</ele>
        <time>2025-03-15T13:17:35.013Z</time>
      </trkpt>
      <trkpt lat="43.3353" lon="6.56936">
        <ele>64.94</ele>
        <time>2025-03-15T13:17:35.814Z</time>
      </trkpt>
      <trkpt lat="43.33531" lon="6.56938">
        <ele>65.09</ele>
        <time>2025-03-15T13:17:36.606Z</time>
      </trkpt>
      <trkpt lat="43.33533" lon="6.56944">
        <ele>65.22</ele>
        <time>2025-03-15T13:17:38.307Z</time>
      </trkpt>
      <trkpt lat="43.33534" lon="6.56948">
        <ele>65.3</ele>
        <time>2025-03-15T13:17:39.494Z</time>
      </trkpt>
      <trkpt lat="43.33533" lon="6.56951">
        <ele>65.32</ele>
        <time>2025-03-15T13:17:40.255Z</time>
      </trkpt>
      <trkpt lat="43.33532" lon="6.56952">
        <ele>65.28</ele>
        <time>2025-03-15T13:17:40.570Z</time>
      </trkpt>
      <trkpt lat="43.33531" lon="6.56951">
        <ele>65.2</ele>
        <time>2025-03-15T13:17:40.871Z</time>
      </trkpt>
      <trkpt lat="43.3353" lon="6.5695">
        <ele>65.06</ele>
        <time>2025-03-15T13:17:41.194Z</time>
      </trkpt>
      <trkpt lat="43.33529" lon="6.56949">
        <ele>64.87</ele>
        <time>2025-03-15T13:17:41.597Z</time>
      </trkpt>
      <trkpt lat="43.33528" lon="6.56948">
        <ele>64.63</ele>
        <time>2025-03-15T13:17:42.081Z</time>
      </trkpt>
      <trkpt lat="43.33522" lon="6.56949">
        <ele>64.34</ele>
        <time>2025-03-15T13:17:43.676Z</time>
      </trkpt>
      <trkpt lat="43.3352" lon="6.56947">
        <ele>63.98</ele>
        <time>2025-03-15T13:17:44.305Z</time>
      </trkpt>
      <trkpt lat="43.33516" lon="6.5694">
        <ele>63.54</ele>
        <time>2025-03-15T13:17:46.100Z</time>
      </trkpt>
      <trkpt lat="43.33515" lon="6.56936">
        <ele>63.08</ele>
        <time>2025-03-15T13:17:46.997Z</time>
      </trkpt>
      <trkpt lat="43.33511" lon="6.56925">
        <ele>62.53</ele>
        <time>2025-03-15T13:17:49.650Z</time>
      </trkpt>
      <trkpt lat="43.33511" lon="6.56917">
        <ele>61.98</ele>
        <time>2025-03-15T13:17:51.365Z</time>
      </trkpt>
      <trkpt lat="43.33511" lon="6.56913">
        <ele>61.41</ele>
        <time>2025-03-15T13:17:52.030Z</time>
      </trkpt>
      <trkpt lat="43.33512" lon="6.5691">
        <ele>60.8</ele>
        <time>2025-03-15T13:17:52.779Z</time>
      </trkpt>
      <trkpt lat="43.33514" lon="6.56903">
        <ele>60.16</ele>
        <time>2025-03-15T13:17:54.431Z</time>
      </trkpt>
      <trkpt lat="43.33519" lon="6.56893">
        <ele>59.49</ele>
        <time>2025-03-15T13:17:56.756Z</time>
      </trkpt>
      <trkpt lat="43.3352" lon="6.56876">
        <ele>58.75</ele>
        <time>2025-03-15T13:18:00.367Z</time>
      </trkpt>
      <trkpt lat="43.33519" lon="6.5687">
        <ele>58.04</ele>
        <time>2025-03-15T13:18:01.515Z</time>
      </trkpt>
      <trkpt lat="43.33518" lon="6.56864">
        <ele>57.32</ele>
        <time>2025-03-15T13:18:02.820Z</time>
      </trkpt>
      <trkpt lat="43.33516" lon="6.56858">
        <ele>56.57</ele>
        <time>2025-03-15T13:18:04.166Z</time>
      </trkpt>
      <trkpt lat="43.33513" lon="6.56846">
        <ele>55.79</ele>
        <time>2025-03-15T13:18:06.783Z</time>
      </trkpt>
      <trkpt lat="43.33513" lon="6.56839">
        <ele>55.06</ele>
        <time>2025-03-15T13:18:08.232Z</time>
      </trkpt>
      <trkpt lat="43.33514" lon="6.56831">
        <ele>54.35</ele>
        <time>2025-03-15T13:18:10.043Z</time>
      </trkpt>
      <trkpt lat="43.33513" lon="6.56821">
        <ele>53.64</ele>
        <time>2025-03-15T13:18:11.933Z</time>
      </trkpt>
      <trkpt lat="43.33512" lon="6.56813">
        <ele>52.96</ele>
        <time>2025-03-15T13:18:13.789Z</time>
      </trkpt>
      <trkpt lat="43.3351" lon="6.56805">
        <ele>52.32</ele>
        <time>2025-03-15T13:18:15.390Z</time>
      </trkpt>
      <trkpt lat="43.33509" lon="6.56799">
        <ele>51.74</ele>
        <time>2025-03-15T13:18:16.827Z</time>
      </trkpt>
      <trkpt lat="43.33507" lon="6.56795">
        <ele>51.2</ele>
        <time>2025-03-15T13:18:17.792Z</time>
      </trkpt>
      <trkpt lat="43.33505" lon="6.56792">
        <ele>50.71</ele>
        <time>2025-03-15T13:18:18.485Z</time>
      </trkpt>
      <trkpt lat="43.33504" lon="6.5679">
        <ele>50.25</ele>
        <time>2025-03-15T13:18:19.094Z</time>
      </trkpt>
      <trkpt lat="43.33504" lon="6.56787">
        <ele>49.84</ele>
        <time>2025-03-15T13:18:19.669Z</time>
      </trkpt>
      <trkpt lat="43.33504" lon="6.56784">
        <ele>49.46</ele>
        <time>2025-03-15T13:18:20.282Z</time>
      </trkpt>
      <trkpt lat="43.33506" lon="6.56781">
        <ele>49.13</ele>
        <time>2025-03-15T13:18:21.072Z</time>
      </trkpt>
      <trkpt lat="43.33505" lon="6.56777">
        <ele>48.84</ele>
        <time>2025-03-15T13:18:21.889Z</time>
      </trkpt>
      <trkpt lat="43.33503" lon="6.56773">
        <ele>48.59</ele>
        <time>2025-03-15T13:18:22.838Z</time>
      </trkpt>
      <trkpt lat="43.33501" lon="6.56768">
        <ele>48.38</ele>
        <time>2025-03-15T13:18:24.048Z</time>
      </trkpt>
      <trkpt lat="43.33499" lon="6.56764">
        <ele>48.21</ele>
        <time>2025-03-15T13:18:25.149Z</time>
      </trkpt>
      <trkpt lat="43.33497" lon="6.5676">
        <ele>48.08</ele>
        <time>2025-03-15T13:18:25.953Z</time>
      </trkpt>
      <trkpt lat="43.33495" lon="6.5676">
        <ele>47.99</ele>
        <time>2025-03-15T13:18:26.420Z</time>
      </trkpt>
      <trkpt lat="43.33494" lon="6.56761">
        <ele>47.94</ele>
        <time>2025-03-15T13:18:26.779Z</time>
      </trkpt>
      <trkpt lat="43.33493" lon="6.56762">
        <ele>47.93</ele>
        <time>2025-03-15T13:18:27.167Z</time>
      </trkpt>
      <trkpt lat="43.33493" lon="6.56763">
        <ele>47.94</ele>
        <time>2025-03-15T13:18:27.581Z</time>
      </trkpt>
      <trkpt lat="43.33492" lon="6.56764">
        <ele>47.99</ele>
        <time>2025-03-15T13:18:27.949Z</time>
      </trkpt>
      <trkpt lat="43.33491" lon="6.56766">
        <ele>48.06</ele>
        <time>2025-03-15T13:18:28.556Z</time>
      </trkpt>
      <trkpt lat="43.3349" lon="6.56767">
        <ele>48.15</ele>
        <time>2025-03-15T13:18:29.012Z</time>
      </trkpt>
      <trkpt lat="43.33485" lon="6.56774">
        <ele>48.28</ele>
        <time>2025-03-15T13:18:31.449Z</time>
      </trkpt>
      <trkpt lat="43.33482" lon="6.56783">
        <ele>48.42</ele>
        <time>2025-03-15T13:18:34.017Z</time>
      </trkpt>
      <trkpt lat="43.33482" lon="6.56788">
        <ele>48.59</ele>
        <time>2025-03-15T13:18:35.407Z</time>
      </trkpt>
      <trkpt lat="43.33485" lon="6.5679">
        <ele>48.78</ele>
        <time>2025-03-15T13:18:36.772Z</time>
      </trkpt>
      <trkpt lat="43.33489" lon="6.56793">
        <ele>48.99</ele>
        <time>2025-03-15T13:18:38.359Z</time>
      </trkpt>
      <trkpt lat="43.3349" lon="6.56796">
        <ele>49.21</ele>
        <time>2025-03-15T13:18:39.438Z</time>
      </trkpt>
      <trkpt lat="43.33491" lon="6.56799">
        <ele>49.45</ele>
        <time>2025-03-15T13:18:40.519Z</time>
      </trkpt>
      <trkpt lat="43.33492" lon="6.56802">
        <ele>49.7</ele>
        <time>2025-03-15T13:18:41.639Z</time>
      </trkpt>
      <trkpt lat="43.33493" lon="6.56805">
        <ele>49.96</ele>
        <time>2025-03-15T13:18:42.782Z</time>
      </trkpt>
      <trkpt lat="43.33494" lon="6.56812">
        <ele>50.25</ele>
        <time>2025-03-15T13:18:44.807Z</time>
      </trkpt>
      <trkpt lat="43.33494" lon="6.56815">
        <ele>50.54</ele>
        <time>2025-03-15T13:18:45.944Z</time>
      </trkpt>
      <trkpt lat="43.33495" lon="6.56818">
        <ele>50.84</ele>
        <time>2025-03-15T13:18:47.083Z</time>
      </trkpt>
      <trkpt lat="43.33495" lon="6.56822">
        <ele>51.15</ele>
        <time>2025-03-15T13:18:48.319Z</time>
      </trkpt>
      <trkpt lat="43.33495" lon="6.56824">
        <ele>51.47</ele>
        <time>2025-03-15T13:18:49.419Z</time>
      </trkpt>
      <trkpt lat="43.33496" lon="6.56827">
        <ele>51.79</ele>
        <time>2025-03-15T13:18:50.467Z</time>
      </trkpt>
      <trkpt lat="43.33494" lon="6.5683">
        <ele>52.12</ele>
        <time>2025-03-15T13:18:51.733Z</time>
      </trkpt>
      <trkpt lat="43.33492" lon="6.56836">
        <ele>52.46</ele>
        <time>2025-03-15T13:18:53.819Z</time>
      </trkpt>
      <trkpt lat="43.33489" lon="6.56842">
        <ele>52.83</ele>
        <time>2025-03-15T13:18:56.075Z</time>
      </trkpt>
      <trkpt lat="43.33486" lon="6.56851">
        <ele>53.22</ele>
        <time>2025-03-15T13:18:58.840Z</time>
      </trkpt>
      <trkpt lat="43.33486" lon="6.56857">
        <ele>53.6</ele>
        <time>2025-03-15T13:19:00.565Z</time>
      </trkpt>
      <trkpt lat="43.33487" lon="6.56859">
        <ele>53.97</ele>
        <time>2025-03-15T13:19:01.800Z</time>
      </trkpt>
      <trkpt lat="43.33487" lon="6.56863">
        <ele>54.35</ele>
        <time>2025-03-15T13:19:03.143Z</time>
      </trkpt>
      <trkpt lat="43.33486" lon="6.56866">
        <ele>54.74</ele>
        <time>2025-03-15T13:19:04.502Z</time>
      </trkpt>
      <trkpt lat="43.33486" lon="6.56869">
        <ele>55.13</ele>
        <time>2025-03-15T13:19:05.829Z</time>
      </trkpt>
      <trkpt lat="43.33486" lon="6.56872">
        <ele>55.53</ele>
        <time>2025-03-15T13:19:07.147Z</time>
      </trkpt>
      <trkpt lat="43.33487" lon="6.56875">
        <ele>55.94</ele>
        <time>2025-03-15T13:19:08.509Z</time>
      </trkpt>
      <trkpt lat="43.33488" lon="6.56878">
        <ele>56.37</ele>
        <time>2025-03-15T13:19:10.014Z</time>
      </trkpt>
      <trkpt lat="43.3349" lon="6.56882">
        <ele>56.81</ele>
        <time>2025-03-15T13:19:11.605Z</time>
      </trkpt>
      <trkpt lat="43.33491" lon="6.56885">
        <ele>57.25</ele>
        <time>2025-03-15T13:19:13.087Z</time>
      </trkpt>
      <trkpt lat="43.3349" lon="6.56888">
        <ele>57.69</ele>
        <time>2025-03-15T13:19:14.542Z</time>
      </trkpt>
      <trkpt lat="43.3349" lon="6.56892">
        <ele>58.15</ele>
        <time>2025-03-15T13:19:16.135Z</time>
      </trkpt>
      <trkpt lat="43.3349" lon="6.56896">
        <ele>58.61</ele>
        <time>2025-03-15T13:19:17.704Z</time>
      </trkpt>
      <trkpt lat="43.3349" lon="6.56899">
        <ele>59.08</ele>
        <time>2025-03-15T13:19:19.268Z</time>
      </trkpt>
      <trkpt lat="43.3349" lon="6.56903">
        <ele>59.56</ele>
        <time>2025-03-15T13:19:20.861Z</time>
      </trkpt>
      <trkpt lat="43.3349" lon="6.56914">
        <ele>60.08</ele>
        <time>2025-03-15T13:19:24.027Z</time>
      </trkpt>
      <trkpt lat="43.33489" lon="6.56919">
        <ele>60.58</ele>
        <time>2025-03-15T13:19:26.065Z</time>
      </trkpt>
      <trkpt lat="43.33487" lon="6.56925">
        <ele>61.06</ele>
        <time>2025-03-15T13:19:28.100Z</time>
      </trkpt>
      <trkpt lat="43.33487" lon="6.56928">
        <ele>61.54</ele>
        <time>2025-03-15T13:19:29.637Z</time>
      </trkpt>
      <trkpt lat="43.33488" lon="6.56931">
        <ele>62.02</ele>
        <time>2025-03-15T13:19:31.188Z</time>
      </trkpt>
      <trkpt lat="43.3349" lon="6.56933">
        <ele>62.49</ele>
        <time>2025-03-15T13:19:32.710Z</time>
      </trkpt>
      <trkpt lat="43.33492" lon="6.56935">
        <ele>62.95</ele>
        <time>2025-03-15T13:19:34.218Z</time>
      </trkpt>
      <trkpt lat="43.33497" lon="6.56946">
        <ele>63.45</ele>
        <time>2025-03-15T13:19:37.937Z</time>
      </trkpt>
      <trkpt lat="43.33505" lon="6.56962">
        <ele>63.94</ele>
        <time>2025-03-15T13:19:42.835Z</time>
      </trkpt>
      <trkpt lat="43.33509" lon="6.56971">
        <ele>64.36</ele>
        <time>2025-03-15T13:19:45.864Z</time>
      </trkpt>
      <trkpt lat="43.3351" lon="6.56975">
        <ele>64.73</ele>
        <time>2025-03-15T13:19:47.278Z</time>
      </trkpt>
      <trkpt lat="43.33514" lon="6.56987">
        <ele>65.09</ele>
        <time>2025-03-15T13:19:50.949Z</time>
      </trkpt>
      <trkpt lat="43.33515" lon="6.5699">
        <ele>65.37</ele>
        <time>2025-03-15T13:19:52.011Z</time>
      </trkpt>
      <trkpt lat="43.33516" lon="6.56993">
        <ele>65.61</ele>
        <time>2025-03-15T13:19:53.086Z</time>
      </trkpt>
      <trkpt lat="43.33516" lon="6.56996">
        <ele>65.81</ele>
        <time>2025-03-15T13:19:54.047Z</time>
      </trkpt>
      <trkpt lat="43.33516" lon="6.56998">
        <ele>65.95</ele>
        <time>2025-03-15T13:19:54.770Z</time>
      </trkpt>
      <trkpt lat="43.33515" lon="6.57001">
        <ele>66.05</ele>
        <time>2025-03-15T13:19:55.502Z</time>
      </trkpt>
      <trkpt lat="43.3351" lon="6.57005">
        <ele>66.09</ele>
        <time>2025-03-15T13:19:57.323Z</time>
      </trkpt>
      <trkpt lat="43.33497" lon="6.57018">
        <ele>66.1</ele>
        <time>2025-03-15T13:20:02.519Z</time>
      </trkpt>
      <trkpt lat="43.33493" lon="6.57029">
        <ele>66.09</ele>
        <time>2025-03-15T13:20:05.413Z</time>
      </trkpt>
      <trkpt lat="43.33487" lon="6.57034">
        <ele>65.99</ele>
        <time>2025-03-15T13:20:07.549Z</time>
      </trkpt>
      <trkpt lat="43.33478" lon="6.57042">
        <ele>65.83</ele>
        <time>2025-03-15T13:20:10.916Z</time>
      </trkpt>
      <trkpt lat="43.33473" lon="6.57047">
        <ele>65.68</ele>
        <time>2025-03-15T13:20:12.845Z</time>
      </trkpt>
      <trkpt lat="43.3347" lon="6.57048">
        <ele>65.48</ele>
        <time>2025-03-15T13:20:13.765Z</time>
      </trkpt>
      <trkpt lat="43.33466" lon="6.57048">
        <ele>65.24</ele>
        <time>2025-03-15T13:20:14.916Z</time>
      </trkpt>
      <trkpt lat="43.33461" lon="6.57038">
        <ele>64.91</ele>
        <time>2025-03-15T13:20:17.425Z</time>
      </trkpt>
      <trkpt lat="43.33459" lon="6.57032">
        <ele>64.61</ele>
        <time>2025-03-15T13:20:18.678Z</time>
      </trkpt>
      <trkpt lat="43.33456" lon="6.57029">
        <ele>64.31</ele>
        <time>2025-03-15T13:20:19.682Z</time>
      </trkpt>
      <trkpt lat="43.33454" lon="6.57028">
        <ele>64.02</ele>
        <time>2025-03-15T13:20:20.347Z</time>
      </trkpt>
      <trkpt lat="43.33451" lon="6.57031">
        <ele>63.74</ele>
        <time>2025-03-15T13:20:21.304Z</time>
      </trkpt>
      <trkpt lat="43.33448" lon="6.57035">
        <ele>63.47</ele>
        <time>2025-03-15T13:20:22.449Z</time>
      </trkpt>
      <trkpt lat="43.33446" lon="6.5704">
        <ele>63.2</ele>
        <time>2025-03-15T13:20:23.816Z</time>
      </trkpt>
      <trkpt lat="43.33444" lon="6.57045">
        <ele>62.93</ele>
        <time>2025-03-15T13:20:24.897Z</time>
      </trkpt>
      <trkpt lat="43.33443" lon="6.57048">
        <ele>62.65</ele>
        <time>2025-03-15T13:20:25.650Z</time>
      </trkpt>
      <trkpt lat="43.33441" lon="6.57052">
        <ele>62.38</ele>
        <time>2025-03-15T13:20:26.476Z</time>
      </trkpt>
      <trkpt lat="43.33441" lon="6.57052">
        <ele>62.1</ele>
        <time>2025-03-15T13:20:26.562Z</time>
      </trkpt>
      <trkpt lat="43.33435" lon="6.57055">
        <ele>61.8</ele>
        <time>2025-03-15T13:20:28.274Z</time>
      </trkpt>
      <trkpt lat="43.33434" lon="6.57056">
        <ele>61.51</ele>
        <time>2025-03-15T13:20:28.717Z</time>
      </trkpt>
      <trkpt lat="43.33429" lon="6.57058">
        <ele>61.19</ele>
        <time>2025-03-15T13:20:30.264Z</time>
      </trkpt>
      <trkpt lat="43.33428" lon="6.57058">
        <ele>60.91</ele>
        <time>2025-03-15T13:20:30.457Z</time>
      </trkpt>
      <trkpt lat="43.33428" lon="6.5706">
        <ele>60.63</ele>
        <time>2025-03-15T13:20:30.750Z</time>
      </trkpt>
      <trkpt lat="43.33428" lon="6.57062">
        <ele>60.36</ele>
        <time>2025-03-15T13:20:31.241Z</time>
      </trkpt>
      <trkpt lat="43.33426" lon="6.57064">
        <ele>60.06</ele>
        <time>2025-03-15T13:20:31.979Z</time>
      </trkpt>
      <trkpt lat="43.33425" lon="6.57064">
        <ele>59.76</ele>
        <time>2025-03-15T13:20:32.190Z</time>
      </trkpt>
      <trkpt lat="43.33425" lon="6.57063">
        <ele>59.46</ele>
        <time>2025-03-15T13:20:32.340Z</time>
      </trkpt>
      <trkpt lat="43.33423" lon="6.57059">
        <ele>59.13</ele>
        <time>2025-03-15T13:20:33.458Z</time>
      </trkpt>
      <trkpt lat="43.33423" lon="6.57055">
        <ele>58.81</ele>
        <time>2025-03-15T13:20:34.251Z</time>
      </trkpt>
      <trkpt lat="43.33423" lon="6.57055">
        <ele>58.49</ele>
        <time>2025-03-15T13:20:34.374Z</time>
      </trkpt>
      <trkpt lat="43.33419" lon="6.57053">
        <ele>58.13</ele>
        <time>2025-03-15T13:20:35.519Z</time>
      </trkpt>
      <trkpt lat="43.33412" lon="6.5705">
        <ele>57.74</ele>
        <time>2025-03-15T13:20:37.437Z</time>
      </trkpt>
      <trkpt lat="43.33406" lon="6.57052">
        <ele>57.37</ele>
        <time>2025-03-15T13:20:39.333Z</time>
      </trkpt>
      <trkpt lat="43.33402" lon="6.57043">
        <ele>56.99</ele>
        <time>2025-03-15T13:20:41.413Z</time>
      </trkpt>
      <trkpt lat="43.33403" lon="6.5704">
        <ele>56.66</ele>
        <time>2025-03-15T13:20:42.178Z</time>
      </trkpt>
      <trkpt lat="43.33404" lon="6.57037">
        <ele>56.32</ele>
        <time>2025-03-15T13:20:42.641Z</time>
      </trkpt>
      <trkpt lat="43.33404" lon="6.57035">
        <ele>55.98</ele>
        <time>2025-03-15T13:20:43.070Z</time>
      </trkpt>
      <trkpt lat="43.33403" lon="6.57034">
        <ele>55.63</ele>
        <time>2025-03-15T13:20:43.507Z</time>
      </trkpt>
      <trkpt lat="43.33397" lon="6.5703">
        <ele>55.25</ele>
        <time>2025-03-15T13:20:45.256Z</time>
      </trkpt>
      <trkpt lat="43.33396" lon="6.57029">
        <ele>54.91</ele>
        <time>2025-03-15T13:20:45.622Z</time>
      </trkpt>
      <trkpt lat="43.3339" lon="6.5703">
        <ele>54.54</ele>
        <time>2025-03-15T13:20:47.295Z</time>
      </trkpt>
      <trkpt lat="43.33388" lon="6.57034">
        <ele>54.21</ele>
        <time>2025-03-15T13:20:48.292Z</time>
      </trkpt>
      <trkpt lat="43.33385" lon="6.5704">
        <ele>53.9</ele>
        <time>2025-03-15T13:20:49.834Z</time>
      </trkpt>
      <trkpt lat="43.33379" lon="6.57048">
        <ele>53.58</ele>
        <time>2025-03-15T13:20:52.182Z</time>
      </trkpt>
      <trkpt lat="43.33378" lon="6.5705">
        <ele>53.27</ele>
        <time>2025-03-15T13:20:52.832Z</time>
      </trkpt>
      <trkpt lat="43.33376" lon="6.57053">
        <ele>52.97</ele>
        <time>2025-03-15T13:20:53.482Z</time>
      </trkpt>
      <trkpt lat="43.33374" lon="6.57058">
        <ele>52.67</ele>
        <time>2025-03-15T13:20:54.744Z</time>
      </trkpt>
      <trkpt lat="43.33368" lon="6.57066">
        <ele>52.34</ele>
        <time>2025-03-15T13:20:57.179Z</time>
      </trkpt>
      <trkpt lat="43.33365" lon="6.57068">
        <ele>52.05</ele>
        <time>2025-03-15T13:20:58.109Z</time>
      </trkpt>
      <trkpt lat="43.33362" lon="6.57069">
        <ele>51.76</ele>
        <time>2025-03-15T13:20:59.054Z</time>
      </trkpt>
      <trkpt lat="43.33358" lon="6.57071">
        <ele>51.49</ele>
        <time>2025-03-15T13:21:00.155Z</time>
      </trkpt>
      <trkpt lat="43.33355" lon="6.57071">
        <ele>51.25</ele>
        <time>2025-03-15T13:21:00.918Z</time>
      </trkpt>
      <trkpt lat="43.33354" lon="6.57069">
        <ele>51.06</ele>
        <time>2025-03-15T13:21:01.408Z</time>
      </trkpt>
      <trkpt lat="43.33352" lon="6.57067">
        <ele>50.89</ele>
        <time>2025-03-15T13:21:01.966Z</time>
      </trkpt>
      <trkpt lat="43.33351" lon="6.57064">
        <ele>50.76</ele>
        <time>2025-03-15T13:21:02.602Z</time>
      </trkpt>
      <trkpt lat="43.33351" lon="6.5706">
        <ele>50.67</ele>
        <time>2025-03-15T13:21:03.601Z</time>
      </trkpt>
      <trkpt lat="43.33352" lon="6.57055">
        <ele>50.62</ele>
        <time>2025-03-15T13:21:04.683Z</time>
      </trkpt>
      <trkpt lat="43.33353" lon="6.57052">
        <ele>50.58</ele>
        <time>2025-03-15T13:21:05.549Z</time>
      </trkpt>
      <trkpt lat="43.33354" lon="6.57048">
        <ele>50.57</ele>
        <time>2025-03-15T13:21:06.350Z</time>
      </trkpt>
      <trkpt lat="43.33355" lon="6.57046">
        <ele>50.6</ele>
        <time>2025-03-15T13:21:07.107Z</time>
      </trkpt>
      <trkpt lat="43.33357" lon="6.57044">
        <ele>50.65</ele>
        <time>2025-03-15T13:21:07.807Z</time>
      </trkpt>
      <trkpt lat="43.33358" lon="6.57041">
        <ele>50.72</ele>
        <time>2025-03-15T13:21:08.794Z</time>
      </trkpt>
      <trkpt lat="43.33359" lon="6.57039">
        <ele>50.82</ele>
        <time>2025-03-15T13:21:09.367Z</time>
      </trkpt>
      <trkpt lat="43.3336" lon="6.57037">
        <ele>50.95</ele>
        <time>2025-03-15T13:21:10.001Z</time>
      </trkpt>
      <trkpt lat="43.3336" lon="6.57036">
        <ele>51.09</ele>
        <time>2025-03-15T13:21:10.529Z</time>
      </trkpt>
      <trkpt lat="43.33361" lon="6.57035">
        <ele>51.25</ele>
        <time>2025-03-15T13:21:11.153Z</time>
      </trkpt>
      <trkpt lat="43.33362" lon="6.57033">
        <ele>51.44</ele>
        <time>2025-03-15T13:21:11.817Z</time>
      </trkpt>
      <trkpt lat="43.33364" lon="6.5703">
        <ele>51.64</ele>
        <time>2025-03-15T13:21:13.219Z</time>
      </trkpt>
      <trkpt lat="43.33369" lon="6.57023">
        <ele>51.84</ele>
        <time>2025-03-15T13:21:15.564Z</time>
      </trkpt>
      <trkpt lat="43.3337" lon="6.57022">
        <ele>52.05</ele>
        <time>2025-03-15T13:21:16.322Z</time>
      </trkpt>
      <trkpt lat="43.33377" lon="6.57014">
        <ele>52.3</ele>
        <time>2025-03-15T13:21:19.570Z</time>
      </trkpt>
      <trkpt lat="43.33381" lon="6.57011">
        <ele>52.54</ele>
        <time>2025-03-15T13:21:21.190Z</time>
      </trkpt>
      <trkpt lat="43.33385" lon="6.57007">
        <ele>52.78</ele>
        <time>2025-03-15T13:21:23.073Z</time>
      </trkpt>
      <trkpt lat="43.33386" lon="6.57006">
        <ele>52.98</ele>
        <time>2025-03-15T13:21:23.848Z</time>
      </trkpt>
      <trkpt lat="43.33388" lon="6.57005">
        <ele>53.16</ele>
        <time>2025-03-15T13:21:24.647Z</time>
      </trkpt>
      <trkpt lat="43.33393" lon="6.57002">
        <ele>53.34</ele>
        <time>2025-03-15T13:21:26.642Z</time>
      </trkpt>
      <trkpt lat="43.33397" lon="6.56998">
        <ele>53.49</ele>
        <time>2025-03-15T13:21:28.507Z</time>
      </trkpt>
      <trkpt lat="43.33403" lon="6.56993">
        <ele>53.61</ele>
        <time>2025-03-15T13:21:30.761Z</time>
      </trkpt>
      <trkpt lat="43.33408" lon="6.56989">
        <ele>53.7</ele>
        <time>2025-03-15T13:21:32.760Z</time>
      </trkpt>
      <trkpt lat="43.33414" lon="6.56987">
        <ele>53.77</ele>
        <time>2025-03-15T13:21:34.832Z</time>
      </trkpt>
      <trkpt lat="43.33416" lon="6.56986">
        <ele>53.78</ele>
        <time>2025-03-15T13:21:35.709Z</time>
      </trkpt>
      <trkpt lat="43.33417" lon="6.56985">
        <ele>53.75</ele>
        <time>2025-03-15T13:21:36.058Z</time>
      </trkpt>
      <trkpt lat="43.33417" lon="6.56985">
        <ele>53.66</ele>
        <time>2025-03-15T13:21:36.060Z</time>
      </trkpt>
      <trkpt lat="43.33418" lon="6.56984">
        <ele>53.53</ele>
        <time>2025-03-15T13:21:36.368Z</time>
      </trkpt>
      <trkpt lat="43.33419" lon="6.56971">
        <ele>53.32</ele>
        <time>2025-03-15T13:21:39.328Z</time>
      </trkpt>
      <trkpt lat="43.33418" lon="6.56967">
        <ele>53.09</ele>
        <time>2025-03-15T13:21:40.057Z</time>
      </trkpt>
      <trkpt lat="43.33416" lon="6.56962">
        <ele>52.79</ele>
        <time>2025-03-15T13:21:41.308Z</time>
      </trkpt>
      <trkpt lat="43.33415" lon="6.56961">
        <ele>52.49</ele>
        <time>2025-03-15T13:21:41.662Z</time>
      </trkpt>
      <trkpt lat="43.33415" lon="6.56958">
        <ele>52.14</ele>
        <time>2025-03-15T13:21:42.312Z</time>
      </trkpt>
      <trkpt lat="43.33414" lon="6.56954">
        <ele>51.76</ele>
        <time>2025-03-15T13:21:43.129Z</time>
      </trkpt>
      <trkpt lat="43.33415" lon="6.56949">
        <ele>51.36</ele>
        <time>2025-03-15T13:21:44.050Z</time>
      </trkpt>
      <trkpt lat="43.33414" lon="6.56945">
        <ele>50.93</ele>
        <time>2025-03-15T13:21:45.008Z</time>
      </trkpt>
      <trkpt lat="43.33409" lon="6.56939">
        <ele>50.45</ele>
        <time>2025-03-15T13:21:46.718Z</time>
      </trkpt>
      <trkpt lat="43.33402" lon="6.56933">
        <ele>49.93</ele>
        <time>2025-03-15T13:21:49.024Z</time>
      </trkpt>
      <trkpt lat="43.33399" lon="6.5693">
        <ele>49.45</ele>
        <time>2025-03-15T13:21:50.263Z</time>
      </trkpt>
      <trkpt lat="43.33395" lon="6.56928">
        <ele>48.96</ele>
        <time>2025-03-15T13:21:51.482Z</time>
      </trkpt>
      <trkpt lat="43.33391" lon="6.56925">
        <ele>48.48</ele>
        <time>2025-03-15T13:21:52.625Z</time>
      </trkpt>
      <trkpt lat="43.33388" lon="6.56924">
        <ele>48.01</ele>
        <time>2025-03-15T13:21:53.654Z</time>
      </trkpt>
      <trkpt lat="43.33385" lon="6.56922">
        <ele>47.56</ele>
        <time>2025-03-15T13:21:54.482Z</time>
      </trkpt>
      <trkpt lat="43.33381" lon="6.56919">
        <ele>47.1</ele>
        <time>2025-03-15T13:21:55.721Z</time>
      </trkpt>
      <trkpt lat="43.3338" lon="6.56919">
        <ele>46.7</ele>
        <time>2025-03-15T13:21:55.969Z</time>
      </trkpt>
      <trkpt lat="43.3338" lon="6.56918">
        <ele>46.33</ele>
        <time>2025-03-15T13:21:56.005Z</time>
      </trkpt>
      <trkpt lat="43.3338" lon="6.56918">
        <ele>45.98</ele>
        <time>2025-03-15T13:21:56.104Z</time>
      </trkpt>
      <trkpt lat="43.3338" lon="6.56916">
        <ele>45.65</ele>
        <time>2025-03-15T13:21:56.451Z</time>
      </trkpt>
      <trkpt lat="43.3338" lon="6.56912">
        <ele>45.34</ele>
        <time>2025-03-15T13:21:57.309Z</time>
      </trkpt>
      <trkpt lat="43.33382" lon="6.56908">
        <ele>45.05</ele>
        <time>2025-03-15T13:21:58.355Z</time>
      </trkpt>
      <trkpt lat="43.33383" lon="6.56904">
        <ele>44.78</ele>
        <time>2025-03-15T13:21:59.261Z</time>
      </trkpt>
      <trkpt lat="43.33383" lon="6.56902">
        <ele>44.53</ele>
        <time>2025-03-15T13:21:59.572Z</time>
      </trkpt>
      <trkpt lat="43.33385" lon="6.56898">
        <ele>44.31</ele>
        <time>2025-03-15T13:22:00.589Z</time>
      </trkpt>
      <trkpt lat="43.33387" lon="6.56894">
        <ele>44.1</ele>
        <time>2025-03-15T13:22:01.522Z</time>
      </trkpt>
      <trkpt lat="43.33388" lon="6.56888">
        <ele>43.88</ele>
        <time>2025-03-15T13:22:02.777Z</time>
      </trkpt>
      <trkpt lat="43.33389" lon="6.56885">
        <ele>43.69</ele>
        <time>2025-03-15T13:22:03.505Z</time>
      </trkpt>
      <trkpt lat="43.3339" lon="6.56881">
        <ele>43.5</ele>
        <time>2025-03-15T13:22:04.259Z</time>
      </trkpt>
      <trkpt lat="43.33391" lon="6.56877">
        <ele>43.33</ele>
        <time>2025-03-15T13:22:05.091Z</time>
      </trkpt>
      <trkpt lat="43.33392" lon="6.56874">
        <ele>43.17</ele>
        <time>2025-03-15T13:22:05.935Z</time>
      </trkpt>
      <trkpt lat="43.33396" lon="6.56868">
        <ele>43.02</ele>
        <time>2025-03-15T13:22:07.643Z</time>
      </trkpt>
      <trkpt lat="43.33398" lon="6.56866">
        <ele>42.89</ele>
        <time>2025-03-15T13:22:08.365Z</time>
      </trkpt>
      <trkpt lat="43.334" lon="6.56865">
        <ele>42.76</ele>
        <time>2025-03-15T13:22:09.104Z</time>
      </trkpt>
      <trkpt lat="43.33402" lon="6.56863">
        <ele>42.62</ele>
        <time>2025-03-15T13:22:09.764Z</time>
      </trkpt>
      <trkpt lat="43.33404" lon="6.56862">
        <ele>42.49</ele>
        <time>2025-03-15T13:22:10.278Z</time>
      </trkpt>
      <trkpt lat="43.33409" lon="6.56859">
        <ele>42.36</ele>
        <time>2025-03-15T13:22:11.892Z</time>
      </trkpt>
      <trkpt lat="43.3341" lon="6.56857">
        <ele>42.2</ele>
        <time>2025-03-15T13:22:12.516Z</time>
      </trkpt>
      <trkpt lat="43.33414" lon="6.56853">
        <ele>42.04</ele>
        <time>2025-03-15T13:22:13.934Z</time>
      </trkpt>
      <trkpt lat="43.3342" lon="6.56845">
        <ele>41.87</ele>
        <time>2025-03-15T13:22:16.394Z</time>
      </trkpt>
      <trkpt lat="43.33419" lon="6.56841">
        <ele>41.66</ele>
        <time>2025-03-15T13:22:17.069Z</time>
      </trkpt>
      <trkpt lat="43.33415" lon="6.56834">
        <ele>41.39</ele>
        <time>2025-03-15T13:22:19.073Z</time>
      </trkpt>
      <trkpt lat="43.33408" lon="6.56818">
        <ele>41.11</ele>
        <time>2025-03-15T13:22:23.166Z</time>
      </trkpt>
      <trkpt lat="43.33402" lon="6.56817">
        <ele>40.84</ele>
        <time>2025-03-15T13:22:24.777Z</time>
      </trkpt>
      <trkpt lat="43.33398" lon="6.56822">
        <ele>40.58</ele>
        <time>2025-03-15T13:22:26.321Z</time>
      </trkpt>
      <trkpt lat="43.33393" lon="6.5683">
        <ele>40.3</ele>
        <time>2025-03-15T13:22:28.616Z</time>
      </trkpt>
      <trkpt lat="43.33389" lon="6.56833">
        <ele>40.03</ele>
        <time>2025-03-15T13:22:29.793Z</time>
      </trkpt>
      <trkpt lat="43.33386" lon="6.56837">
        <ele>39.77</ele>
        <time>2025-03-15T13:22:30.980Z</time>
      </trkpt>
      <trkpt lat="43.33383" lon="6.56838">
        <ele>39.52</ele>
        <time>2025-03-15T13:22:31.986Z</time>
      </trkpt>
      <trkpt lat="43.3338" lon="6.56837">
        <ele>39.26</ele>
        <time>2025-03-15T13:22:32.958Z</time>
      </trkpt>
      <trkpt lat="43.33378" lon="6.56833">
        <ele>39</ele>
        <time>2025-03-15T13:22:33.880Z</time>
      </trkpt>
      <trkpt lat="43.33378" lon="6.56822">
        <ele>38.75</ele>
        <time>2025-03-15T13:22:36.171Z</time>
      </trkpt>
      <trkpt lat="43.33376" lon="6.56818">
        <ele>38.51</ele>
        <time>2025-03-15T13:22:37.201Z</time>
      </trkpt>
      <trkpt lat="43.33374" lon="6.56816">
        <ele>38.27</ele>
        <time>2025-03-15T13:22:38.017Z</time>
      </trkpt>
      <trkpt lat="43.33371" lon="6.56818">
        <ele>38.04</ele>
        <time>2025-03-15T13:22:38.790Z</time>
      </trkpt>
      <trkpt lat="43.33367" lon="6.56822">
        <ele>37.82</ele>
        <time>2025-03-15T13:22:40.318Z</time>
      </trkpt>
      <trkpt lat="43.33362" lon="6.56824">
        <ele>37.6</ele>
        <time>2025-03-15T13:22:41.756Z</time>
      </trkpt>
      <trkpt lat="43.33358" lon="6.56821">
        <ele>37.39</ele>
        <time>2025-03-15T13:22:42.980Z</time>
      </trkpt>
      <trkpt lat="43.33357" lon="6.56816">
        <ele>37.19</ele>
        <time>2025-03-15T13:22:44.109Z</time>
      </trkpt>
      <trkpt lat="43.33356" lon="6.56812">
        <ele>37</ele>
        <time>2025-03-15T13:22:44.840Z</time>
      </trkpt>
      <trkpt lat="43.33357" lon="6.56811">
        <ele>36.84</ele>
        <time>2025-03-15T13:22:45.199Z</time>
      </trkpt>
      <trkpt lat="43.33357" lon="6.5681">
        <ele>36.68</ele>
        <time>2025-03-15T13:22:45.309Z</time>
      </trkpt>
      <trkpt lat="43.33357" lon="6.5681">
        <ele>36.53</ele>
        <time>2025-03-15T13:22:45.336Z</time>
      </trkpt>
      <trkpt lat="43.33356" lon="6.5681">
        <ele>36.39</ele>
        <time>2025-03-15T13:22:45.539Z</time>
      </trkpt>
      <trkpt lat="43.33353" lon="6.56805">
        <ele>36.23</ele>
        <time>2025-03-15T13:22:47.029Z</time>
      </trkpt>
      <trkpt lat="43.33353" lon="6.568">
        <ele>36.09</ele>
        <time>2025-03-15T13:22:47.995Z</time>
      </trkpt>
      <trkpt lat="43.33354" lon="6.56796">
        <ele>35.99</ele>
        <time>2025-03-15T13:22:48.920Z</time>
      </trkpt>
      <trkpt lat="43.33357" lon="6.5679">
        <ele>35.91</ele>
        <time>2025-03-15T13:22:50.577Z</time>
      </trkpt>
      <trkpt lat="43.33359" lon="6.56785">
        <ele>35.82</ele>
        <time>2025-03-15T13:22:51.746Z</time>
      </trkpt>
      <trkpt lat="43.33359" lon="6.56782">
        <ele>35.74</ele>
        <time>2025-03-15T13:22:52.434Z</time>
      </trkpt>
      <trkpt lat="43.33361" lon="6.56776">
        <ele>35.68</ele>
        <time>2025-03-15T13:22:53.969Z</time>
      </trkpt>
      <trkpt lat="43.33364" lon="6.56767">
        <ele>35.63</ele>
        <time>2025-03-15T13:22:56.139Z</time>
      </trkpt>
      <trkpt lat="43.3337" lon="6.56749">
        <ele>35.6</ele>
        <time>2025-03-15T13:23:00.861Z</time>
      </trkpt>
      <trkpt lat="43.33368" lon="6.56739">
        <ele>35.51</ele>
        <time>2025-03-15T13:23:03.330Z</time>
      </trkpt>
      <trkpt lat="43.3337" lon="6.56724">
        <ele>35.47</ele>
        <time>2025-03-15T13:23:06.829Z</time>
      </trkpt>
      <trkpt lat="43.33371" lon="6.56719">
        <ele>35.46</ele>
        <time>2025-03-15T13:23:08.095Z</time>
      </trkpt>
      <trkpt lat="43.33372" lon="6.56715">
        <ele>35.47</ele>
        <time>2025-03-15T13:23:09.027Z</time>
      </trkpt>
      <trkpt lat="43.33373" lon="6.56712">
        <ele>35.48</ele>
        <time>2025-03-15T13:23:09.893Z</time>
      </trkpt>
      <trkpt lat="43.33373" lon="6.56709">
        <ele>35.49</ele>
        <time>2025-03-15T13:23:10.654Z</time>
      </trkpt>
      <trkpt lat="43.33372" lon="6.56698">
        <ele>35.51</ele>
        <time>2025-03-15T13:23:13.292Z</time>
      </trkpt>
      <trkpt lat="43.33372" lon="6.56694">
        <ele>35.54</ele>
        <time>2025-03-15T13:23:14.072Z</time>
      </trkpt>
      <trkpt lat="43.33373" lon="6.56677">
        <ele>35.59</ele>
        <time>2025-03-15T13:23:18.160Z</time>
      </trkpt>
      <trkpt lat="43.33373" lon="6.56674">
        <ele>35.65</ele>
        <time>2025-03-15T13:23:19.002Z</time>
      </trkpt>
      <trkpt lat="43.33374" lon="6.56668">
        <ele>35.72</ele>
        <time>2025-03-15T13:23:20.580Z</time>
      </trkpt>
      <trkpt lat="43.33375" lon="6.56658">
        <ele>35.8</ele>
        <time>2025-03-15T13:23:22.928Z</time>
      </trkpt>
      <trkpt lat="43.33376" lon="6.56649">
        <ele>35.89</ele>
        <time>2025-03-15T13:23:25.155Z</time>
      </trkpt>
      <trkpt lat="43.33378" lon="6.56642">
        <ele>36.02</ele>
        <time>2025-03-15T13:23:27.147Z</time>
      </trkpt>
      <trkpt lat="43.33383" lon="6.56633">
        <ele>36.18</ele>
        <time>2025-03-15T13:23:29.984Z</time>
      </trkpt>
      <trkpt lat="43.33388" lon="6.56627">
        <ele>36.39</ele>
        <time>2025-03-15T13:23:32.381Z</time>
      </trkpt>
      <trkpt lat="43.33392" lon="6.56627">
        <ele>36.6</ele>
        <time>2025-03-15T13:23:33.930Z</time>
      </trkpt>
      <trkpt lat="43.33393" lon="6.56627">
        <ele>36.79</ele>
        <time>2025-03-15T13:23:34.663Z</time>
      </trkpt>
      <trkpt lat="43.33395" lon="6.56628">
        <ele>37</ele>
        <time>2025-03-15T13:23:35.531Z</time>
      </trkpt>
      <trkpt lat="43.33397" lon="6.5663">
        <ele>37.22</ele>
        <time>2025-03-15T13:23:36.482Z</time>
      </trkpt>
      <trkpt lat="43.33398" lon="6.56632">
        <ele>37.44</ele>
        <time>2025-03-15T13:23:37.424Z</time>
      </trkpt>
      <trkpt lat="43.334" lon="6.56635">
        <ele>37.67</ele>
        <time>2025-03-15T13:23:38.668Z</time>
      </trkpt>
      <trkpt lat="43.33401" lon="6.56635">
        <ele>37.9</ele>
        <time>2025-03-15T13:23:39.360Z</time>
      </trkpt>
      <trkpt lat="43.33401" lon="6.56636">
        <ele>38.13</ele>
        <time>2025-03-15T13:23:40.096Z</time>
      </trkpt>
      <trkpt lat="43.33401" lon="6.56636">
        <ele>38.36</ele>
        <time>2025-03-15T13:23:40.346Z</time>
      </trkpt>
      <trkpt lat="43.33402" lon="6.56638">
        <ele>38.59</ele>
        <time>2025-03-15T13:23:41.106Z</time>
      </trkpt>
      <trkpt lat="43.33402" lon="6.56639">
        <ele>38.83</ele>
        <time>2025-03-15T13:23:41.898Z</time>
      </trkpt>
      <trkpt lat="43.33404" lon="6.56642">
        <ele>39.08</ele>
        <time>2025-03-15T13:23:43.030Z</time>
      </trkpt>
      <trkpt lat="43.33406" lon="6.56645">
        <ele>39.34</ele>
        <time>2025-03-15T13:23:44.228Z</time>
      </trkpt>
      <trkpt lat="43.33407" lon="6.56646">
        <ele>39.59</ele>
        <time>2025-03-15T13:23:45.134Z</time>
      </trkpt>
      <trkpt lat="43.33409" lon="6.56654">
        <ele>39.85</ele>
        <time>2025-03-15T13:23:47.285Z</time>
      </trkpt>
      <trkpt lat="43.33409" lon="6.56656">
        <ele>40.08</ele>
        <time>2025-03-15T13:23:48.097Z</time>
      </trkpt>
      <trkpt lat="43.33409" lon="6.56658">
        <ele>40.31</ele>
        <time>2025-03-15T13:23:49.041Z</time>
      </trkpt>
      <trkpt lat="43.33409" lon="6.56661">
        <ele>40.53</ele>
        <time>2025-03-15T13:23:49.956Z</time>
      </trkpt>
      <trkpt lat="43.33409" lon="6.56663">
        <ele>40.74</ele>
        <time>2025-03-15T13:23:50.784Z</time>
      </trkpt>
      <trkpt lat="43.33409" lon="6.56666">
        <ele>40.95</ele>
        <time>2025-03-15T13:23:51.635Z</time>
      </trkpt>
      <trkpt lat="43.33409" lon="6.56668">
        <ele>41.15</ele>
        <time>2025-03-15T13:23:52.418Z</time>
      </trkpt>
      <trkpt lat="43.3341" lon="6.56677">
        <ele>41.36</ele>
        <time>2025-03-15T13:23:54.707Z</time>
      </trkpt>
      <trkpt lat="43.33411" lon="6.56681">
        <ele>41.54</ele>
        <time>2025-03-15T13:23:55.893Z</time>
      </trkpt>
      <trkpt lat="43.33411" lon="6.56683">
        <ele>41.72</ele>
        <time>2025-03-15T13:23:56.684Z</time>
      </trkpt>
      <trkpt lat="43.33411" lon="6.56686">
        <ele>41.87</ele>
        <time>2025-03-15T13:23:57.506Z</time>
      </trkpt>
      <trkpt lat="43.33411" lon="6.56689">
        <ele>42.02</ele>
        <time>2025-03-15T13:23:58.540Z</time>
      </trkpt>
      <trkpt lat="43.33411" lon="6.56694">
        <ele>42.15</ele>
        <time>2025-03-15T13:23:59.689Z</time>
      </trkpt>
      <trkpt lat="43.33412" lon="6.56697">
        <ele>42.27</ele>
        <time>2025-03-15T13:24:00.744Z</time>
      </trkpt>
      <trkpt lat="43.33413" lon="6.56708">
        <ele>42.41</ele>
        <time>2025-03-15T13:24:03.505Z</time>
      </trkpt>
      <trkpt lat="43.33415" lon="6.56708">
        <ele>42.5</ele>
        <time>2025-03-15T13:24:04.111Z</time>
      </trkpt>
      <trkpt lat="43.33424" lon="6.56701">
        <ele>42.63</ele>
        <time>2025-03-15T13:24:07.474Z</time>
      </trkpt>
      <trkpt lat="43.33425" lon="6.56694">
        <ele>42.68</ele>
        <time>2025-03-15T13:24:09.456Z</time>
      </trkpt>
      <trkpt lat="43.33425" lon="6.56687">
        <ele>42.7</ele>
        <time>2025-03-15T13:24:10.955Z</time>
      </trkpt>
      <trkpt lat="43.33423" lon="6.56679">
        <ele>42.7</ele>
        <time>2025-03-15T13:24:12.900Z</time>
      </trkpt>
      <trkpt lat="43.33424" lon="6.56671">
        <ele>42.68</ele>
        <time>2025-03-15T13:24:14.896Z</time>
      </trkpt>
      <trkpt lat="43.33426" lon="6.56668">
        <ele>42.69</ele>
        <time>2025-03-15T13:24:15.804Z</time>
      </trkpt>
      <trkpt lat="43.33432" lon="6.56662">
        <ele>42.71</ele>
        <time>2025-03-15T13:24:18.171Z</time>
      </trkpt>
      <trkpt lat="43.33434" lon="6.5666">
        <ele>42.71</ele>
        <time>2025-03-15T13:24:19.011Z</time>
      </trkpt>
      <trkpt lat="43.33436" lon="6.56658">
        <ele>42.7</ele>
        <time>2025-03-15T13:24:19.777Z</time>
      </trkpt>
      <trkpt lat="43.33439" lon="6.56643">
        <ele>42.68</ele>
        <time>2025-03-15T13:24:23.392Z</time>
      </trkpt>
      <trkpt lat="43.3344" lon="6.56634">
        <ele>42.66</ele>
        <time>2025-03-15T13:24:25.476Z</time>
      </trkpt>
      <trkpt lat="43.33445" lon="6.56622">
        <ele>42.63</ele>
        <time>2025-03-15T13:24:28.776Z</time>
      </trkpt>
      <trkpt lat="43.33452" lon="6.56616">
        <ele>42.62</ele>
        <time>2025-03-15T13:24:31.227Z</time>
      </trkpt>
      <trkpt lat="43.33453" lon="6.56616">
        <ele>42.64</ele>
        <time>2025-03-15T13:24:31.788Z</time>
      </trkpt>
      <trkpt lat="43.33462" lon="6.56625">
        <ele>42.68</ele>
        <time>2025-03-15T13:24:35.207Z</time>
      </trkpt>
      <trkpt lat="43.33462" lon="6.56628">
        <ele>42.73</ele>
        <time>2025-03-15T13:24:35.999Z</time>
      </trkpt>
      <trkpt lat="43.33464" lon="6.56637">
        <ele>42.8</ele>
        <time>2025-03-15T13:24:38.215Z</time>
      </trkpt>
      <trkpt lat="43.33466" lon="6.56643">
        <ele>42.88</ele>
        <time>2025-03-15T13:24:39.951Z</time>
      </trkpt>
      <trkpt lat="43.3347" lon="6.56645">
        <ele>42.97</ele>
        <time>2025-03-15T13:24:41.510Z</time>
      </trkpt>
      <trkpt lat="43.33477" lon="6.56644">
        <ele>43.07</ele>
        <time>2025-03-15T13:24:43.809Z</time>
      </trkpt>
      <trkpt lat="43.33479" lon="6.56646">
        <ele>43.19</ele>
        <time>2025-03-15T13:24:44.941Z</time>
      </trkpt>
      <trkpt lat="43.33482" lon="6.56648">
        <ele>43.33</ele>
        <time>2025-03-15T13:24:45.909Z</time>
      </trkpt>
      <trkpt lat="43.33486" lon="6.56651">
        <ele>43.49</ele>
        <time>2025-03-15T13:24:47.722Z</time>
      </trkpt>
      <trkpt lat="43.33492" lon="6.56657">
        <ele>43.67</ele>
        <time>2025-03-15T13:24:50.337Z</time>
      </trkpt>
      <trkpt lat="43.33494" lon="6.56659">
        <ele>43.86</ele>
        <time>2025-03-15T13:24:51.354Z</time>
      </trkpt>
      <trkpt lat="43.33496" lon="6.56665">
        <ele>44.07</ele>
        <time>2025-03-15T13:24:53.046Z</time>
      </trkpt>
      <trkpt lat="43.33496" lon="6.56668">
        <ele>44.3</ele>
        <time>2025-03-15T13:24:54.011Z</time>
      </trkpt>
      <trkpt lat="43.33496" lon="6.56671">
        <ele>44.55</ele>
        <time>2025-03-15T13:24:55.160Z</time>
      </trkpt>
      <trkpt lat="43.33495" lon="6.56676">
        <ele>44.82</ele>
        <time>2025-03-15T13:24:56.513Z</time>
      </trkpt>
      <trkpt lat="43.33494" lon="6.5668">
        <ele>45.09</ele>
        <time>2025-03-15T13:24:57.857Z</time>
      </trkpt>
      <trkpt lat="43.33489" lon="6.56707">
        <ele>45.49</ele>
        <time>2025-03-15T13:25:04.782Z</time>
      </trkpt>
      <trkpt lat="43.33488" lon="6.5671">
        <ele>45.76</ele>
        <time>2025-03-15T13:25:06.091Z</time>
      </trkpt>
      <trkpt lat="43.3349" lon="6.56729">
        <ele>46.09</ele>
        <time>2025-03-15T13:25:10.766Z</time>
      </trkpt>
      <trkpt lat="43.33492" lon="6.56732">
        <ele>46.32</ele>
        <time>2025-03-15T13:25:12.031Z</time>
      </trkpt>
      <trkpt lat="43.33494" lon="6.56734">
        <ele>46.54</ele>
        <time>2025-03-15T13:25:13.233Z</time>
      </trkpt>
      <trkpt lat="43.33497" lon="6.56737">
        <ele>46.73</ele>
        <time>2025-03-15T13:25:14.484Z</time>
      </trkpt>
      <trkpt lat="43.33499" lon="6.5674">
        <ele>46.91</ele>
        <time>2025-03-15T13:25:15.699Z</time>
      </trkpt>
      <trkpt lat="43.33501" lon="6.56742">
        <ele>47.07</ele>
        <time>2025-03-15T13:25:16.774Z</time>
      </trkpt>
      <trkpt lat="43.33506" lon="6.56742">
        <ele>47.2</ele>
        <time>2025-03-15T13:25:18.371Z</time>
      </trkpt>
      <trkpt lat="43.33508" lon="6.56741">
        <ele>47.32</ele>
        <time>2025-03-15T13:25:19.226Z</time>
      </trkpt>
      <trkpt lat="43.33515" lon="6.56737">
        <ele>47.4</ele>
        <time>2025-03-15T13:25:21.724Z</time>
      </trkpt>
      <trkpt lat="43.33523" lon="6.56736">
        <ele>47.46</ele>
        <time>2025-03-15T13:25:24.501Z</time>
      </trkpt>
      <trkpt lat="43.33526" lon="6.56733">
        <ele>47.54</ele>
        <time>2025-03-15T13:25:25.667Z</time>
      </trkpt>
      <trkpt lat="43.33527" lon="6.56727">
        <ele>47.59</ele>
        <time>2025-03-15T13:25:27.139Z</time>
      </trkpt>
      <trkpt lat="43.33535" lon="6.56725">
        <ele>47.66</ele>
        <time>2025-03-15T13:25:29.891Z</time>
      </trkpt>
      <trkpt lat="43.33538" lon="6.56725">
        <ele>47.73</ele>
        <time>2025-03-15T13:25:30.815Z</time>
      </trkpt>
      <trkpt lat="43.33556" lon="6.56727">
        <ele>47.85</ele>
        <time>2025-03-15T13:25:36.955Z</time>
      </trkpt>
      <trkpt lat="43.33576" lon="6.5672">
        <ele>47.89</ele>
        <time>2025-03-15T13:25:43.567Z</time>
      </trkpt>
      <trkpt lat="43.33595" lon="6.56715">
        <ele>47.96</ele>
        <time>2025-03-15T13:25:49.996Z</time>
      </trkpt>
      <trkpt lat="43.33598" lon="6.56716">
        <ele>48.07</ele>
        <time>2025-03-15T13:25:51.047Z</time>
      </trkpt>
      <trkpt lat="43.336" lon="6.56718">
        <ele>48.19</ele>
        <time>2025-03-15T13:25:52.142Z</time>
      </trkpt>
      <trkpt lat="43.33603" lon="6.56721">
        <ele>48.34</ele>
        <time>2025-03-15T13:25:53.367Z</time>
      </trkpt>
      <trkpt lat="43.33605" lon="6.56724">
        <ele>48.51</ele>
        <time>2025-03-15T13:25:54.467Z</time>
      </trkpt>
      <trkpt lat="43.33607" lon="6.56726">
        <ele>48.7</ele>
        <time>2025-03-15T13:25:55.645Z</time>
      </trkpt>
      <trkpt lat="43.3361" lon="6.56733">
        <ele>48.94</ele>
        <time>2025-03-15T13:25:57.783Z</time>
      </trkpt>
      <trkpt lat="43.33613" lon="6.5674">
        <ele>49.2</ele>
        <time>2025-03-15T13:26:00.057Z</time>
      </trkpt>
      <trkpt lat="43.33614" lon="6.56744">
        <ele>49.46</ele>
        <time>2025-03-15T13:26:01.356Z</time>
      </trkpt>
      <trkpt lat="43.33616" lon="6.56748">
        <ele>49.74</ele>
        <time>2025-03-15T13:26:02.657Z</time>
      </trkpt>
      <trkpt lat="43.33617" lon="6.56751">
        <ele>50.04</ele>
        <time>2025-03-15T13:26:04.013Z</time>
      </trkpt>
      <trkpt lat="43.33619" lon="6.56755">
        <ele>50.35</ele>
        <time>2025-03-15T13:26:05.408Z</time>
      </trkpt>
      <trkpt lat="43.3362" lon="6.56759">
        <ele>50.67</ele>
        <time>2025-03-15T13:26:06.844Z</time>
      </trkpt>
      <trkpt lat="43.33626" lon="6.56769">
        <ele>51.02</ele>
        <time>2025-03-15T13:26:10.317Z</time>
      </trkpt>
      <trkpt lat="43.33639" lon="6.56788">
        <ele>51.43</ele>
        <time>2025-03-15T13:26:16.845Z</time>
      </trkpt>
      <trkpt lat="43.3364" lon="6.56792">
        <ele>51.81</ele>
        <time>2025-03-15T13:26:18.294Z</time>
      </trkpt>
      <trkpt lat="43.33641" lon="6.56795">
        <ele>52.21</ele>
        <time>2025-03-15T13:26:19.700Z</time>
      </trkpt>
      <trkpt lat="43.33642" lon="6.56799">
        <ele>52.62</ele>
        <time>2025-03-15T13:26:21.194Z</time>
      </trkpt>
      <trkpt lat="43.33643" lon="6.56802">
        <ele>53.04</ele>
        <time>2025-03-15T13:26:22.666Z</time>
      </trkpt>
      <trkpt lat="43.33643" lon="6.5681">
        <ele>53.49</ele>
        <time>2025-03-15T13:26:25.104Z</time>
      </trkpt>
      <trkpt lat="43.33644" lon="6.56825">
        <ele>53.99</ele>
        <time>2025-03-15T13:26:29.123Z</time>
      </trkpt>
      <trkpt lat="43.33645" lon="6.56828">
        <ele>54.44</ele>
        <time>2025-03-15T13:26:30.671Z</time>
      </trkpt>
      <trkpt lat="43.33646" lon="6.56832">
        <ele>54.88</ele>
        <time>2025-03-15T13:26:32.214Z</time>
      </trkpt>
      <trkpt lat="43.33647" lon="6.56836">
        <ele>55.33</ele>
        <time>2025-03-15T13:26:33.822Z</time>
      </trkpt>
      <trkpt lat="43.33648" lon="6.56839">
        <ele>55.76</ele>
        <time>2025-03-15T13:26:35.282Z</time>
      </trkpt>
      <trkpt lat="43.3365" lon="6.56845">
        <ele>56.2</ele>
        <time>2025-03-15T13:26:37.430Z</time>
      </trkpt>
      <trkpt lat="43.33653" lon="6.5685">
        <ele>56.64</ele>
        <time>2025-03-15T13:26:39.523Z</time>
      </trkpt>
      <trkpt lat="43.33655" lon="6.56852">
        <ele>57.05</ele>
        <time>2025-03-15T13:26:40.913Z</time>
      </trkpt>
      <trkpt lat="43.33657" lon="6.56855">
        <ele>57.46</ele>
        <time>2025-03-15T13:26:42.314Z</time>
      </trkpt>
      <trkpt lat="43.33658" lon="6.56857">
        <ele>57.86</ele>
        <time>2025-03-15T13:26:43.676Z</time>
      </trkpt>
      <trkpt lat="43.33661" lon="6.56859">
        <ele>58.26</ele>
        <time>2025-03-15T13:26:45.128Z</time>
      </trkpt>
      <trkpt lat="43.33674" lon="6.56875">
        <ele>58.66</ele>
        <time>2025-03-15T13:26:51.263Z</time>
      </trkpt>
      <trkpt lat="43.33679" lon="6.56885">
        <ele>59.05</ele>
        <time>2025-03-15T13:26:54.704Z</time>
      </trkpt>
      <trkpt lat="43.33681" lon="6.56889">
        <ele>59.42</ele>
        <time>2025-03-15T13:26:56.293Z</time>
      </trkpt>
      <trkpt lat="43.33683" lon="6.56893">
        <ele>59.79</ele>
        <time>2025-03-15T13:26:57.836Z</time>
      </trkpt>
      <trkpt lat="43.33685" lon="6.56896">
        <ele>60.14</ele>
        <time>2025-03-15T13:26:59.214Z</time>
      </trkpt>
      <trkpt lat="43.33686" lon="6.569">
        <ele>60.49</ele>
        <time>2025-03-15T13:27:00.712Z</time>
      </trkpt>
      <trkpt lat="43.33691" lon="6.56919">
        <ele>60.87</ele>
        <time>2025-03-15T13:27:05.718Z</time>
      </trkpt>
      <trkpt lat="43.33697" lon="6.56939">
        <ele>61.31</ele>
        <time>2025-03-15T13:27:11.265Z</time>
      </trkpt>
      <trkpt lat="43.33699" lon="6.56942">
        <ele>61.63</ele>
        <time>2025-03-15T13:27:12.751Z</time>
      </trkpt>
      <trkpt lat="43.33702" lon="6.56944">
        <ele>61.92</ele>
        <time>2025-03-15T13:27:14.123Z</time>
      </trkpt>
      <trkpt lat="43.33704" lon="6.56946">
        <ele>62.19</ele>
        <time>2025-03-15T13:27:15.437Z</time>
      </trkpt>
      <trkpt lat="43.33708" lon="6.56947">
        <ele>62.44</ele>
        <time>2025-03-15T13:27:16.789Z</time>
      </trkpt>
      <trkpt lat="43.33711" lon="6.56947">
        <ele>62.66</ele>
        <time>2025-03-15T13:27:18.178Z</time>
      </trkpt>
      <trkpt lat="43.33729" lon="6.56943">
        <ele>62.86</ele>
        <time>2025-03-15T13:27:24.298Z</time>
      </trkpt>
      <trkpt lat="43.33746" lon="6.5694">
        <ele>63.07</ele>
        <time>2025-03-15T13:27:29.953Z</time>
      </trkpt>
      <trkpt lat="43.33755" lon="6.56941">
        <ele>63.22</ele>
        <time>2025-03-15T13:27:33.044Z</time>
      </trkpt>
      <trkpt lat="43.33758" lon="6.56942">
        <ele>63.38</ele>
        <time>2025-03-15T13:27:34.285Z</time>
      </trkpt>
      <trkpt lat="43.33761" lon="6.56943">
        <ele>63.53</ele>
        <time>2025-03-15T13:27:35.511Z</time>
      </trkpt>
      <trkpt lat="43.33764" lon="6.56945">
        <ele>63.69</ele>
        <time>2025-03-15T13:27:36.631Z</time>
      </trkpt>
      <trkpt lat="43.33767" lon="6.56947">
        <ele>63.83</ele>
        <time>2025-03-15T13:27:37.856Z</time>
      </trkpt>
      <trkpt lat="43.3378" lon="6.5695">
        <ele>63.93</ele>
        <time>2025-03-15T13:27:42.351Z</time>
      </trkpt>
      <trkpt lat="43.33792" lon="6.56949">
        <ele>64.04</ele>
        <time>2025-03-15T13:27:46.346Z</time>
      </trkpt>
      <trkpt lat="43.33804" lon="6.5695">
        <ele>64.15</ele>
        <time>2025-03-15T13:27:50.419Z</time>
      </trkpt>
      <trkpt lat="43.3381" lon="6.56957">
        <ele>64.29</ele>
        <time>2025-03-15T13:27:53.196Z</time>
      </trkpt>
      <trkpt lat="43.33811" lon="6.56962">
        <ele>64.42</ele>
        <time>2025-03-15T13:27:54.549Z</time>
      </trkpt>
      <trkpt lat="43.33807" lon="6.56976">
        <ele>64.57</ele>
        <time>2025-03-15T13:27:58.201Z</time>
      </trkpt>
      <trkpt lat="43.33797" lon="6.56989">
        <ele>64.78</ele>
        <time>2025-03-15T13:28:03.005Z</time>
      </trkpt>
      <trkpt lat="43.33796" lon="6.56993">
        <ele>64.95</ele>
        <time>2025-03-15T13:28:04.298Z</time>
      </trkpt>
      <trkpt lat="43.33796" lon="6.57011">
        <ele>65.15</ele>
        <time>2025-03-15T13:28:08.803Z</time>
      </trkpt>
      <trkpt lat="43.33802" lon="6.5703">
        <ele>65.32</ele>
        <time>2025-03-15T13:28:13.640Z</time>
      </trkpt>
      <trkpt lat="43.33816" lon="6.57037">
        <ele>65.47</ele>
        <time>2025-03-15T13:28:18.661Z</time>
      </trkpt>
      <trkpt lat="43.33822" lon="6.57038">
        <ele>65.57</ele>
        <time>2025-03-15T13:28:20.719Z</time>
      </trkpt>
      <trkpt lat="43.33825" lon="6.57037">
        <ele>65.65</ele>
        <time>2025-03-15T13:28:21.870Z</time>
      </trkpt>
      <trkpt lat="43.33828" lon="6.57035">
        <ele>65.7</ele>
        <time>2025-03-15T13:28:23.008Z</time>
      </trkpt>
      <trkpt lat="43.3383" lon="6.57032">
        <ele>65.73</ele>
        <time>2025-03-15T13:28:24.147Z</time>
      </trkpt>
      <trkpt lat="43.33832" lon="6.57028">
        <ele>65.77</ele>
        <time>2025-03-15T13:28:25.437Z</time>
      </trkpt>
      <trkpt lat="43.33836" lon="6.5702">
        <ele>65.8</ele>
        <time>2025-03-15T13:28:27.718Z</time>
      </trkpt>
      <trkpt lat="43.33841" lon="6.57001">
        <ele>65.78</ele>
        <time>2025-03-15T13:28:32.185Z</time>
      </trkpt>
      <trkpt lat="43.33842" lon="6.56997">
        <ele>65.74</ele>
        <time>2025-03-15T13:28:33.300Z</time>
      </trkpt>
      <trkpt lat="43.33849" lon="6.56972">
        <ele>65.67</ele>
        <time>2025-03-15T13:28:39.580Z</time>
      </trkpt>
      <trkpt lat="43.33858" lon="6.56951">
        <ele>65.63</ele>
        <time>2025-03-15T13:28:45.411Z</time>
      </trkpt>
      <trkpt lat="43.33864" lon="6.5694">
        <ele>65.61</ele>
        <time>2025-03-15T13:28:48.532Z</time>
      </trkpt>
      <trkpt lat="43.33876" lon="6.56917">
        <ele>65.61</ele>
        <time>2025-03-15T13:28:54.979Z</time>
      </trkpt>
      <trkpt lat="43.33878" lon="6.56911">
        <ele>65.58</ele>
        <time>2025-03-15T13:28:56.676Z</time>
      </trkpt>
      <trkpt lat="43.33881" lon="6.56905">
        <ele>65.56</ele>
        <time>2025-03-15T13:28:58.439Z</time>
      </trkpt>
      <trkpt lat="43.33884" lon="6.56901">
        <ele>65.53</ele>
        <time>2025-03-15T13:28:59.768Z</time>
      </trkpt>
      <trkpt lat="43.33887" lon="6.56896">
        <ele>65.5</ele>
        <time>2025-03-15T13:29:01.228Z</time>
      </trkpt>
      <trkpt lat="43.33891" lon="6.56887">
        <ele>65.48</ele>
        <time>2025-03-15T13:29:03.591Z</time>
      </trkpt>
      <trkpt lat="43.33891" lon="6.56887">
        <ele>65.46</ele>
        <time>2025-03-15T13:29:03.593Z</time>
      </trkpt>
      <trkpt lat="43.33894" lon="6.56878">
        <ele>65.46</ele>
        <time>2025-03-15T13:29:06.146Z</time>
      </trkpt>
      <trkpt lat="43.33899" lon="6.56867">
        <ele>65.44</ele>
        <time>2025-03-15T13:29:09.162Z</time>
      </trkpt>
      <trkpt lat="43.339" lon="6.56864">
        <ele>65.43</ele>
        <time>2025-03-15T13:29:09.946Z</time>
      </trkpt>
      <trkpt lat="43.33901" lon="6.56861">
        <ele>65.42</ele>
        <time>2025-03-15T13:29:10.717Z</time>
      </trkpt>
      <trkpt lat="43.33903" lon="6.56858">
        <ele>65.43</ele>
        <time>2025-03-15T13:29:11.639Z</time>
      </trkpt>
      <trkpt lat="43.33905" lon="6.56855">
        <ele>65.45</ele>
        <time>2025-03-15T13:29:12.538Z</time>
      </trkpt>
      <trkpt lat="43.33911" lon="6.56845">
        <ele>65.48</ele>
        <time>2025-03-15T13:29:15.573Z</time>
      </trkpt>
      <trkpt lat="43.33913" lon="6.56842">
        <ele>65.51</ele>
        <time>2025-03-15T13:29:16.717Z</time>
      </trkpt>
      <trkpt lat="43.33919" lon="6.56835">
        <ele>65.56</ele>
        <time>2025-03-15T13:29:19.292Z</time>
      </trkpt>
      <trkpt lat="43.33921" lon="6.5683">
        <ele>65.6</ele>
        <time>2025-03-15T13:29:20.698Z</time>
      </trkpt>
      <trkpt lat="43.33924" lon="6.56826">
        <ele>65.65</ele>
        <time>2025-03-15T13:29:22.154Z</time>
      </trkpt>
      <trkpt lat="43.33928" lon="6.5682">
        <ele>65.71</ele>
        <time>2025-03-15T13:29:23.798Z</time>
      </trkpt>
      <trkpt lat="43.33931" lon="6.56816">
        <ele>65.78</ele>
        <time>2025-03-15T13:29:25.391Z</time>
      </trkpt>
      <trkpt lat="43.33949" lon="6.56792">
        <ele>65.9</ele>
        <time>2025-03-15T13:29:33.765Z</time>
      </trkpt>
      <trkpt lat="43.33968" lon="6.56773">
        <ele>66.02</ele>
        <time>2025-03-15T13:29:41.378Z</time>
      </trkpt>
      <trkpt lat="43.33976" lon="6.56766">
        <ele>66.12</ele>
        <time>2025-03-15T13:29:44.491Z</time>
      </trkpt>
      <trkpt lat="43.33979" lon="6.56762">
        <ele>66.25</ele>
        <time>2025-03-15T13:29:46.073Z</time>
      </trkpt>
      <trkpt lat="43.33983" lon="6.56753">
        <ele>66.4</ele>
        <time>2025-03-15T13:29:48.835Z</time>
      </trkpt>
      <trkpt lat="43.33986" lon="6.56748">
        <ele>66.56</ele>
        <time>2025-03-15T13:29:50.506Z</time>
      </trkpt>
      <trkpt lat="43.33988" lon="6.56743">
        <ele>66.73</ele>
        <time>2025-03-15T13:29:52.054Z</time>
      </trkpt>
      <trkpt lat="43.33992" lon="6.56739">
        <ele>66.93</ele>
        <time>2025-03-15T13:29:53.759Z</time>
      </trkpt>
      <trkpt lat="43.33995" lon="6.56737">
        <ele>67.13</ele>
        <time>2025-03-15T13:29:55.184Z</time>
      </trkpt>
      <trkpt lat="43.33999" lon="6.56736">
        <ele>67.34</ele>
        <time>2025-03-15T13:29:56.696Z</time>
      </trkpt>
      <trkpt lat="43.34013" lon="6.56726">
        <ele>67.56</ele>
        <time>2025-03-15T13:30:01.946Z</time>
      </trkpt>
      <trkpt lat="43.34016" lon="6.56723">
        <ele>67.79</ele>
        <time>2025-03-15T13:30:03.609Z</time>
      </trkpt>
      <trkpt lat="43.34037" lon="6.56707">
        <ele>68.03</ele>
        <time>2025-03-15T13:30:11.546Z</time>
      </trkpt>
      <trkpt lat="43.3405" lon="6.56704">
        <ele>68.27</ele>
        <time>2025-03-15T13:30:15.912Z</time>
      </trkpt>
      <trkpt lat="43.34059" lon="6.56703">
        <ele>68.55</ele>
        <time>2025-03-15T13:30:19.176Z</time>
      </trkpt>
      <trkpt lat="43.34063" lon="6.56703">
        <ele>68.82</ele>
        <time>2025-03-15T13:30:20.926Z</time>
      </trkpt>
      <trkpt lat="43.34076" lon="6.56706">
        <ele>69.14</ele>
        <time>2025-03-15T13:30:25.391Z</time>
      </trkpt>
      <trkpt lat="43.3408" lon="6.56707">
        <ele>69.41</ele>
        <time>2025-03-15T13:30:27.139Z</time>
      </trkpt>
      <trkpt lat="43.34084" lon="6.56709">
        <ele>69.69</ele>
        <time>2025-03-15T13:30:28.806Z</time>
      </trkpt>
      <trkpt lat="43.34091" lon="6.56714">
        <ele>69.97</ele>
        <time>2025-03-15T13:30:31.656Z</time>
      </trkpt>
      <trkpt lat="43.34105" lon="6.56724">
        <ele>70.28</ele>
        <time>2025-03-15T13:30:36.970Z</time>
      </trkpt>
      <trkpt lat="43.34108" lon="6.56727">
        <ele>70.48</ele>
        <time>2025-03-15T13:30:38.476Z</time>
      </trkpt>
      <trkpt lat="43.34111" lon="6.56729">
        <ele>70.65</ele>
        <time>2025-03-15T13:30:40.001Z</time>
      </trkpt>
      <trkpt lat="43.34115" lon="6.56732">
        <ele>70.78</ele>
        <time>2025-03-15T13:30:41.430Z</time>
      </trkpt>
      <trkpt lat="43.34119" lon="6.56735">
        <ele>70.88</ele>
        <time>2025-03-15T13:30:42.965Z</time>
      </trkpt>
      <trkpt lat="43.34121" lon="6.56738">
        <ele>70.95</ele>
        <time>2025-03-15T13:30:44.057Z</time>
      </trkpt>
      <trkpt lat="43.34126" lon="6.56745">
        <ele>70.98</ele>
        <time>2025-03-15T13:30:46.393Z</time>
      </trkpt>
      <trkpt lat="43.34133" lon="6.56754">
        <ele>70.96</ele>
        <time>2025-03-15T13:30:49.626Z</time>
      </trkpt>
      <trkpt lat="43.34135" lon="6.56756">
        <ele>70.91</ele>
        <time>2025-03-15T13:30:50.207Z</time>
      </trkpt>
      <trkpt lat="43.34136" lon="6.56757">
        <ele>70.81</ele>
        <time>2025-03-15T13:30:50.715Z</time>
      </trkpt>
      <trkpt lat="43.3414" lon="6.56758">
        <ele>70.66</ele>
        <time>2025-03-15T13:30:51.608Z</time>
      </trkpt>
      <trkpt lat="43.34141" lon="6.56758">
        <ele>70.48</ele>
        <time>2025-03-15T13:30:52.132Z</time>
      </trkpt>
      <trkpt lat="43.34143" lon="6.56756">
        <ele>70.27</ele>
        <time>2025-03-15T13:30:52.834Z</time>
      </trkpt>
      <trkpt lat="43.34144" lon="6.56748">
        <ele>70.01</ele>
        <time>2025-03-15T13:30:54.520Z</time>
      </trkpt>
      <trkpt lat="43.34145" lon="6.56718">
        <ele>69.7</ele>
        <time>2025-03-15T13:31:01.431Z</time>
      </trkpt>
      <trkpt lat="43.34145" lon="6.567">
        <ele>69.37</ele>
        <time>2025-03-15T13:31:05.287Z</time>
      </trkpt>
      <trkpt lat="43.34143" lon="6.56688">
        <ele>69.03</ele>
        <time>2025-03-15T13:31:07.962Z</time>
      </trkpt>
      <trkpt lat="43.34141" lon="6.56681">
        <ele>68.67</ele>
        <time>2025-03-15T13:31:09.357Z</time>
      </trkpt>
      <trkpt lat="43.3414" lon="6.56674">
        <ele>68.3</ele>
        <time>2025-03-15T13:31:10.841Z</time>
      </trkpt>
      <trkpt lat="43.34138" lon="6.56667">
        <ele>67.9</ele>
        <time>2025-03-15T13:31:12.364Z</time>
      </trkpt>
      <trkpt lat="43.34137" lon="6.5666">
        <ele>67.49</ele>
        <time>2025-03-15T13:31:13.937Z</time>
      </trkpt>
      <trkpt lat="43.34135" lon="6.56653">
        <ele>67.09</ele>
        <time>2025-03-15T13:31:15.508Z</time>
      </trkpt>
      <trkpt lat="43.34132" lon="6.56638">
        <ele>66.65</ele>
        <time>2025-03-15T13:31:18.687Z</time>
      </trkpt>
      <trkpt lat="43.34126" lon="6.56616">
        <ele>66.23</ele>
        <time>2025-03-15T13:31:23.824Z</time>
      </trkpt>
      <trkpt lat="43.34124" lon="6.56609">
        <ele>65.86</ele>
        <time>2025-03-15T13:31:25.403Z</time>
      </trkpt>
      <trkpt lat="43.34121" lon="6.56602">
        <ele>65.5</ele>
        <time>2025-03-15T13:31:26.997Z</time>
      </trkpt>
      <trkpt lat="43.34119" lon="6.56595">
        <ele>65.15</ele>
        <time>2025-03-15T13:31:28.604Z</time>
      </trkpt>
      <trkpt lat="43.34117" lon="6.56588">
        <ele>64.83</ele>
        <time>2025-03-15T13:31:30.265Z</time>
      </trkpt>
      <trkpt lat="43.34112" lon="6.56573">
        <ele>64.54</ele>
        <time>2025-03-15T13:31:33.792Z</time>
      </trkpt>
      <trkpt lat="43.34105" lon="6.56552">
        <ele>64.26</ele>
        <time>2025-03-15T13:31:39.047Z</time>
      </trkpt>
      <trkpt lat="43.34097" lon="6.5653">
        <ele>63.98</ele>
        <time>2025-03-15T13:31:44.410Z</time>
      </trkpt>
      <trkpt lat="43.34095" lon="6.56523">
        <ele>63.76</ele>
        <time>2025-03-15T13:31:46.105Z</time>
      </trkpt>
      <trkpt lat="43.34092" lon="6.56515">
        <ele>63.58</ele>
        <time>2025-03-15T13:31:47.903Z</time>
      </trkpt>
      <trkpt lat="43.3409" lon="6.56508">
        <ele>63.41</ele>
        <time>2025-03-15T13:31:49.711Z</time>
      </trkpt>
      <trkpt lat="43.34087" lon="6.565">
        <ele>63.27</ele>
        <time>2025-03-15T13:31:51.570Z</time>
      </trkpt>
      <trkpt lat="43.34082" lon="6.56476">
        <ele>63.15</ele>
        <time>2025-03-15T13:31:57.295Z</time>
      </trkpt>
      <trkpt lat="43.34082" lon="6.5646">
        <ele>63.04</ele>
        <time>2025-03-15T13:32:00.991Z</time>
      </trkpt>
      <trkpt lat="43.34083" lon="6.56446">
        <ele>62.95</ele>
        <time>2025-03-15T13:32:04.296Z</time>
      </trkpt>
      <trkpt lat="43.34088" lon="6.56433">
        <ele>62.88</ele>
        <time>2025-03-15T13:32:07.666Z</time>
      </trkpt>
      <trkpt lat="43.34102" lon="6.56418">
        <ele>62.86</ele>
        <time>2025-03-15T13:32:13.228Z</time>
      </trkpt>
      <trkpt lat="43.34106" lon="6.56413">
        <ele>62.81</ele>
        <time>2025-03-15T13:32:15.074Z</time>
      </trkpt>
      <trkpt lat="43.3412" lon="6.56399">
        <ele>62.76</ele>
        <time>2025-03-15T13:32:20.499Z</time>
      </trkpt>
      <trkpt lat="43.34128" lon="6.56389">
        <ele>62.74</ele>
        <time>2025-03-15T13:32:24.138Z</time>
      </trkpt>
      <trkpt lat="43.34135" lon="6.56376">
        <ele>62.66</ele>
        <time>2025-03-15T13:32:27.783Z</time>
      </trkpt>
      <trkpt lat="43.34138" lon="6.56369">
        <ele>62.59</ele>
        <time>2025-03-15T13:32:29.506Z</time>
      </trkpt>
      <trkpt lat="43.34145" lon="6.56342">
        <ele>62.53</ele>
        <time>2025-03-15T13:32:36.393Z</time>
      </trkpt>
      <trkpt lat="43.34152" lon="6.56307">
        <ele>62.41</ele>
        <time>2025-03-15T13:32:44.863Z</time>
      </trkpt>
      <trkpt lat="43.34155" lon="6.56285">
        <ele>62.32</ele>
        <time>2025-03-15T13:32:49.911Z</time>
      </trkpt>
      <trkpt lat="43.34156" lon="6.56233">
        <ele>62.16</ele>
        <time>2025-03-15T13:33:02.003Z</time>
      </trkpt>
      <trkpt lat="43.3415" lon="6.5619">
        <ele>62.07</ele>
        <time>2025-03-15T13:33:12.377Z</time>
      </trkpt>
      <trkpt lat="43.34149" lon="6.56183">
        <ele>61.99</ele>
        <time>2025-03-15T13:33:13.982Z</time>
      </trkpt>
      <trkpt lat="43.34143" lon="6.56131">
        <ele>61.91</ele>
        <time>2025-03-15T13:33:26.143Z</time>
      </trkpt>
      <trkpt lat="43.34137" lon="6.56077">
        <ele>61.81</ele>
        <time>2025-03-15T13:33:39.045Z</time>
      </trkpt>
      <trkpt lat="43.34134" lon="6.56013">
        <ele>61.7</ele>
        <time>2025-03-15T13:33:54.117Z</time>
      </trkpt>
      <trkpt lat="43.34133" lon="6.55996">
        <ele>61.64</ele>
        <time>2025-03-15T13:33:58.082Z</time>
      </trkpt>
      <trkpt lat="43.34126" lon="6.55964">
        <ele>61.63</ele>
        <time>2025-03-15T13:34:05.873Z</time>
      </trkpt>
      <trkpt lat="43.34124" lon="6.55956">
        <ele>61.58</ele>
        <time>2025-03-15T13:34:07.764Z</time>
      </trkpt>
      <trkpt lat="43.34114" lon="6.55925">
        <ele>61.53</ele>
        <time>2025-03-15T13:34:15.801Z</time>
      </trkpt>
      <trkpt lat="43.34112" lon="6.55917">
        <ele>61.48</ele>
        <time>2025-03-15T13:34:17.659Z</time>
      </trkpt>
      <trkpt lat="43.3411" lon="6.5591">
        <ele>61.43</ele>
        <time>2025-03-15T13:34:19.446Z</time>
      </trkpt>
      <trkpt lat="43.34109" lon="6.55902">
        <ele>61.38</ele>
        <time>2025-03-15T13:34:21.334Z</time>
      </trkpt>
      <trkpt lat="43.34107" lon="6.55894">
        <ele>61.35</ele>
        <time>2025-03-15T13:34:23.303Z</time>
      </trkpt>
      <trkpt lat="43.34102" lon="6.55871">
        <ele>61.28</ele>
        <time>2025-03-15T13:34:28.879Z</time>
      </trkpt>
      <trkpt lat="43.34092" lon="6.55808">
        <ele>61.27</ele>
        <time>2025-03-15T13:34:43.900Z</time>
      </trkpt>
      <trkpt lat="43.3409" lon="6.55777">
        <ele>61.3</ele>
        <time>2025-03-15T13:34:51.466Z</time>
      </trkpt>
      <trkpt lat="43.34087" lon="6.55746">
        <ele>61.35</ele>
        <time>2025-03-15T13:34:58.803Z</time>
      </trkpt>
      <trkpt lat="43.34085" lon="6.55739">
        <ele>61.39</ele>
        <time>2025-03-15T13:35:00.562Z</time>
      </trkpt>
      <trkpt lat="43.34076" lon="6.55705">
        <ele>61.43</ele>
        <time>2025-03-15T13:35:09.117Z</time>
      </trkpt>
      <trkpt lat="43.34072" lon="6.55692">
        <ele>61.48</ele>
        <time>2025-03-15T13:35:12.539Z</time>
      </trkpt>
      <trkpt lat="43.3406" lon="6.55654">
        <ele>61.53</ele>
        <time>2025-03-15T13:35:22.344Z</time>
      </trkpt>
      <trkpt lat="43.34058" lon="6.55648">
        <ele>61.62</ele>
        <time>2025-03-15T13:35:24.059Z</time>
      </trkpt>
      <trkpt lat="43.34049" lon="6.55616">
        <ele>61.76</ele>
        <time>2025-03-15T13:35:32.144Z</time>
      </trkpt>
      <trkpt lat="43.3405" lon="6.55611">
        <ele>61.9</ele>
        <time>2025-03-15T13:35:33.714Z</time>
      </trkpt>
      <trkpt lat="43.34052" lon="6.55605">
        <ele>62.05</ele>
        <time>2025-03-15T13:35:35.267Z</time>
      </trkpt>
      <trkpt lat="43.34055" lon="6.55601">
        <ele>62.21</ele>
        <time>2025-03-15T13:35:36.813Z</time>
      </trkpt>
      <trkpt lat="43.34057" lon="6.55597">
        <ele>62.38</ele>
        <time>2025-03-15T13:35:38.300Z</time>
      </trkpt>
      <trkpt lat="43.3406" lon="6.55593">
        <ele>62.57</ele>
        <time>2025-03-15T13:35:39.846Z</time>
      </trkpt>
      <trkpt lat="43.3407" lon="6.55582">
        <ele>62.83</ele>
        <time>2025-03-15T13:35:44.238Z</time>
      </trkpt>
      <trkpt lat="43.34076" lon="6.55576">
        <ele>63.06</ele>
        <time>2025-03-15T13:35:46.954Z</time>
      </trkpt>
      <trkpt lat="43.34086" lon="6.55562">
        <ele>63.28</ele>
        <time>2025-03-15T13:35:51.789Z</time>
      </trkpt>
      <trkpt lat="43.34089" lon="6.55558">
        <ele>63.5</ele>
        <time>2025-03-15T13:35:53.274Z</time>
      </trkpt>
      <trkpt lat="43.34097" lon="6.55546">
        <ele>63.76</ele>
        <time>2025-03-15T13:35:57.425Z</time>
      </trkpt>
      <trkpt lat="43.34099" lon="6.55541">
        <ele>63.97</ele>
        <time>2025-03-15T13:35:59.100Z</time>
      </trkpt>
      <trkpt lat="43.34102" lon="6.55536">
        <ele>64.19</ele>
        <time>2025-03-15T13:36:00.682Z</time>
      </trkpt>
      <trkpt lat="43.34104" lon="6.55531">
        <ele>64.41</ele>
        <time>2025-03-15T13:36:02.352Z</time>
      </trkpt>
      <trkpt lat="43.34108" lon="6.55521">
        <ele>64.65</ele>
        <time>2025-03-15T13:36:05.467Z</time>
      </trkpt>
      <trkpt lat="43.34108" lon="6.55521">
        <ele>64.87</ele>
        <time>2025-03-15T13:36:05.477Z</time>
      </trkpt>
      <trkpt lat="43.3412" lon="6.55493">
        <ele>65.14</ele>
        <time>2025-03-15T13:36:13.253Z</time>
      </trkpt>
      <trkpt lat="43.34122" lon="6.55487">
        <ele>65.36</ele>
        <time>2025-03-15T13:36:14.967Z</time>
      </trkpt>
      <trkpt lat="43.34124" lon="6.55482">
        <ele>65.59</ele>
        <time>2025-03-15T13:36:16.706Z</time>
      </trkpt>
      <trkpt lat="43.34126" lon="6.55477">
        <ele>65.82</ele>
        <time>2025-03-15T13:36:18.374Z</time>
      </trkpt>
      <trkpt lat="43.34128" lon="6.55471">
        <ele>66.04</ele>
        <time>2025-03-15T13:36:20.148Z</time>
      </trkpt>
      <trkpt lat="43.3413" lon="6.55465">
        <ele>66.27</ele>
        <time>2025-03-15T13:36:21.823Z</time>
      </trkpt>
      <trkpt lat="43.34133" lon="6.5546">
        <ele>66.52</ele>
        <time>2025-03-15T13:36:23.659Z</time>
      </trkpt>
      <trkpt lat="43.34135" lon="6.55454">
        <ele>66.78</ele>
        <time>2025-03-15T13:36:25.467Z</time>
      </trkpt>
      <trkpt lat="43.34145" lon="6.55433">
        <ele>67.05</ele>
        <time>2025-03-15T13:36:31.719Z</time>
      </trkpt>
      <trkpt lat="43.3415" lon="6.55422">
        <ele>67.35</ele>
        <time>2025-03-15T13:36:35.044Z</time>
      </trkpt>
      <trkpt lat="43.34152" lon="6.55416">
        <ele>67.63</ele>
        <time>2025-03-15T13:36:36.910Z</time>
      </trkpt>
      <trkpt lat="43.34154" lon="6.55411">
        <ele>67.92</ele>
        <time>2025-03-15T13:36:38.713Z</time>
      </trkpt>
      <trkpt lat="43.34157" lon="6.55405">
        <ele>68.2</ele>
        <time>2025-03-15T13:36:40.545Z</time>
      </trkpt>
      <trkpt lat="43.34159" lon="6.554">
        <ele>68.48</ele>
        <time>2025-03-15T13:36:42.278Z</time>
      </trkpt>
      <trkpt lat="43.34165" lon="6.55384">
        <ele>68.77</ele>
        <time>2025-03-15T13:36:46.904Z</time>
      </trkpt>
      <trkpt lat="43.34172" lon="6.55368">
        <ele>69.07</ele>
        <time>2025-03-15T13:36:51.544Z</time>
      </trkpt>
      <trkpt lat="43.34184" lon="6.55341">
        <ele>69.4</ele>
        <time>2025-03-15T13:36:59.395Z</time>
      </trkpt>
      <trkpt lat="43.34189" lon="6.55331">
        <ele>69.69</ele>
        <time>2025-03-15T13:37:02.618Z</time>
      </trkpt>
      <trkpt lat="43.34203" lon="6.55304">
        <ele>70.01</ele>
        <time>2025-03-15T13:37:10.785Z</time>
      </trkpt>
      <trkpt lat="43.34206" lon="6.55298">
        <ele>70.28</ele>
        <time>2025-03-15T13:37:12.741Z</time>
      </trkpt>
      <trkpt lat="43.34209" lon="6.55292">
        <ele>70.53</ele>
        <time>2025-03-15T13:37:14.656Z</time>
      </trkpt>
      <trkpt lat="43.34211" lon="6.55286">
        <ele>70.77</ele>
        <time>2025-03-15T13:37:16.602Z</time>
      </trkpt>
      <trkpt lat="43.34213" lon="6.5528">
        <ele>71</ele>
        <time>2025-03-15T13:37:18.486Z</time>
      </trkpt>
      <trkpt lat="43.34215" lon="6.55273">
        <ele>71.22</ele>
        <time>2025-03-15T13:37:20.348Z</time>
      </trkpt>
      <trkpt lat="43.34219" lon="6.55261">
        <ele>71.44</ele>
        <time>2025-03-15T13:37:23.743Z</time>
      </trkpt>
      <trkpt lat="43.34223" lon="6.55241">
        <ele>71.65</ele>
        <time>2025-03-15T13:37:28.745Z</time>
      </trkpt>
      <trkpt lat="43.34225" lon="6.55235">
        <ele>71.85</ele>
        <time>2025-03-15T13:37:30.655Z</time>
      </trkpt>
      <trkpt lat="43.34231" lon="6.55216">
        <ele>72.04</ele>
        <time>2025-03-15T13:37:35.688Z</time>
      </trkpt>
      <trkpt lat="43.34243" lon="6.55187">
        <ele>72.19</ele>
        <time>2025-03-15T13:37:43.732Z</time>
      </trkpt>
      <trkpt lat="43.34251" lon="6.55169">
        <ele>72.32</ele>
        <time>2025-03-15T13:37:48.926Z</time>
      </trkpt>
      <trkpt lat="43.34258" lon="6.55157">
        <ele>72.5</ele>
        <time>2025-03-15T13:37:52.560Z</time>
      </trkpt>
      <trkpt lat="43.34266" lon="6.5514">
        <ele>72.69</ele>
        <time>2025-03-15T13:37:57.739Z</time>
      </trkpt>
      <trkpt lat="43.34273" lon="6.5512">
        <ele>72.91</ele>
        <time>2025-03-15T13:38:02.980Z</time>
      </trkpt>
      <trkpt lat="43.34276" lon="6.55106">
        <ele>73.13</ele>
        <time>2025-03-15T13:38:06.689Z</time>
      </trkpt>
      <trkpt lat="43.34283" lon="6.5508">
        <ele>73.39</ele>
        <time>2025-03-15T13:38:13.666Z</time>
      </trkpt>
      <trkpt lat="43.34295" lon="6.55043">
        <ele>73.62</ele>
        <time>2025-03-15T13:38:23.198Z</time>
      </trkpt>
      <trkpt lat="43.34296" lon="6.55038">
        <ele>73.83</ele>
        <time>2025-03-15T13:38:24.804Z</time>
      </trkpt>
      <trkpt lat="43.34298" lon="6.55032">
        <ele>74.05</ele>
        <time>2025-03-15T13:38:26.459Z</time>
      </trkpt>
      <trkpt lat="43.343" lon="6.55027">
        <ele>74.29</ele>
        <time>2025-03-15T13:38:28.235Z</time>
      </trkpt>
      <trkpt lat="43.34302" lon="6.55021">
        <ele>74.52</ele>
        <time>2025-03-15T13:38:29.956Z</time>
      </trkpt>
      <trkpt lat="43.34314" lon="6.55002">
        <ele>74.81</ele>
        <time>2025-03-15T13:38:36.224Z</time>
      </trkpt>
      <trkpt lat="43.34318" lon="6.54997">
        <ele>75.07</ele>
        <time>2025-03-15T13:38:38.121Z</time>
      </trkpt>
      <trkpt lat="43.34333" lon="6.54986">
        <ele>75.36</ele>
        <time>2025-03-15T13:38:44.093Z</time>
      </trkpt>
      <trkpt lat="43.34341" lon="6.54983">
        <ele>75.62</ele>
        <time>2025-03-15T13:38:47.213Z</time>
      </trkpt>
      <trkpt lat="43.34345" lon="6.5498">
        <ele>75.86</ele>
        <time>2025-03-15T13:38:48.764Z</time>
      </trkpt>
      <trkpt lat="43.34349" lon="6.54979">
        <ele>76.1</ele>
        <time>2025-03-15T13:38:50.335Z</time>
      </trkpt>
      <trkpt lat="43.34353" lon="6.54977">
        <ele>76.35</ele>
        <time>2025-03-15T13:38:51.907Z</time>
      </trkpt>
      <trkpt lat="43.3436" lon="6.54974">
        <ele>76.61</ele>
        <time>2025-03-15T13:38:54.662Z</time>
      </trkpt>
      <trkpt lat="43.34366" lon="6.54972">
        <ele>76.89</ele>
        <time>2025-03-15T13:38:57.043Z</time>
      </trkpt>
      <trkpt lat="43.34367" lon="6.54972">
        <ele>77.16</ele>
        <time>2025-03-15T13:38:57.921Z</time>
      </trkpt>
      <trkpt lat="43.34369" lon="6.54968">
        <ele>77.44</ele>
        <time>2025-03-15T13:38:59.140Z</time>
      </trkpt>
      <trkpt lat="43.34367" lon="6.5496">
        <ele>77.73</ele>
        <time>2025-03-15T13:39:01.456Z</time>
      </trkpt>
      <trkpt lat="43.34357" lon="6.54947">
        <ele>78</ele>
        <time>2025-03-15T13:39:06.282Z</time>
      </trkpt>
      <trkpt lat="43.34347" lon="6.54932">
        <ele>78.33</ele>
        <time>2025-03-15T13:39:11.459Z</time>
      </trkpt>
      <trkpt lat="43.34338" lon="6.54921">
        <ele>78.63</ele>
        <time>2025-03-15T13:39:15.540Z</time>
      </trkpt>
      <trkpt lat="43.34334" lon="6.54919">
        <ele>78.9</ele>
        <time>2025-03-15T13:39:17.299Z</time>
      </trkpt>
      <trkpt lat="43.34323" lon="6.54914">
        <ele>79.17</ele>
        <time>2025-03-15T13:39:21.401Z</time>
      </trkpt>
      <trkpt lat="43.34308" lon="6.54904">
        <ele>79.44</ele>
        <time>2025-03-15T13:39:27.110Z</time>
      </trkpt>
      <trkpt lat="43.34289" lon="6.5489">
        <ele>79.67</ele>
        <time>2025-03-15T13:39:34.354Z</time>
      </trkpt>
      <trkpt lat="43.34285" lon="6.54887">
        <ele>79.85</ele>
        <time>2025-03-15T13:39:35.906Z</time>
      </trkpt>
      <trkpt lat="43.34281" lon="6.54885">
        <ele>80.03</ele>
        <time>2025-03-15T13:39:37.505Z</time>
      </trkpt>
      <trkpt lat="43.34277" lon="6.54882">
        <ele>80.19</ele>
        <time>2025-03-15T13:39:39.099Z</time>
      </trkpt>
      <trkpt lat="43.34273" lon="6.54879">
        <ele>80.34</ele>
        <time>2025-03-15T13:39:40.723Z</time>
      </trkpt>
      <trkpt lat="43.34257" lon="6.54867">
        <ele>80.47</ele>
        <time>2025-03-15T13:39:46.835Z</time>
      </trkpt>
      <trkpt lat="43.34254" lon="6.54863">
        <ele>80.61</ele>
        <time>2025-03-15T13:39:48.334Z</time>
      </trkpt>
      <trkpt lat="43.34247" lon="6.5485">
        <ele>80.73</ele>
        <time>2025-03-15T13:39:52.291Z</time>
      </trkpt>
      <trkpt lat="43.34232" lon="6.54829">
        <ele>80.87</ele>
        <time>2025-03-15T13:39:59.354Z</time>
      </trkpt>
      <trkpt lat="43.34216" lon="6.54808">
        <ele>80.97</ele>
        <time>2025-03-15T13:40:06.522Z</time>
      </trkpt>
      <trkpt lat="43.34213" lon="6.54804">
        <ele>81.01</ele>
        <time>2025-03-15T13:40:08.044Z</time>
      </trkpt>
      <trkpt lat="43.3421" lon="6.548">
        <ele>81.02</ele>
        <time>2025-03-15T13:40:09.485Z</time>
      </trkpt>
      <trkpt lat="43.3419" lon="6.54771">
        <ele>80.98</ele>
        <time>2025-03-15T13:40:18.744Z</time>
      </trkpt>
      <trkpt lat="43.34169" lon="6.54737">
        <ele>80.99</ele>
        <time>2025-03-15T13:40:29.369Z</time>
      </trkpt>
      <trkpt lat="43.34147" lon="6.54709">
        <ele>80.89</ele>
        <time>2025-03-15T13:40:38.919Z</time>
      </trkpt>
      <trkpt lat="43.34142" lon="6.54699">
        <ele>80.8</ele>
        <time>2025-03-15T13:40:41.670Z</time>
      </trkpt>
      <trkpt lat="43.34136" lon="6.54691">
        <ele>80.68</ele>
        <time>2025-03-15T13:40:44.230Z</time>
      </trkpt>
      <trkpt lat="43.34129" lon="6.54684">
        <ele>80.54</ele>
        <time>2025-03-15T13:40:46.860Z</time>
      </trkpt>
      <trkpt lat="43.34123" lon="6.54679">
        <ele>80.39</ele>
        <time>2025-03-15T13:40:49.060Z</time>
      </trkpt>
      <trkpt lat="43.34116" lon="6.5468">
        <ele>80.21</ele>
        <time>2025-03-15T13:40:51.027Z</time>
      </trkpt>
      <trkpt lat="43.3411" lon="6.54681">
        <ele>80.01</ele>
        <time>2025-03-15T13:40:52.966Z</time>
      </trkpt>
      <trkpt lat="43.34098" lon="6.54687">
        <ele>79.79</ele>
        <time>2025-03-15T13:40:56.823Z</time>
      </trkpt>
      <trkpt lat="43.3409" lon="6.54692">
        <ele>79.52</ele>
        <time>2025-03-15T13:40:59.384Z</time>
      </trkpt>
      <trkpt lat="43.34081" lon="6.54697">
        <ele>79.23</ele>
        <time>2025-03-15T13:41:02.212Z</time>
      </trkpt>
      <trkpt lat="43.34072" lon="6.54704">
        <ele>78.94</ele>
        <time>2025-03-15T13:41:05.305Z</time>
      </trkpt>
      <trkpt lat="43.34068" lon="6.54706">
        <ele>78.65</ele>
        <time>2025-03-15T13:41:06.719Z</time>
      </trkpt>
      <trkpt lat="43.34059" lon="6.54712">
        <ele>78.36</ele>
        <time>2025-03-15T13:41:09.451Z</time>
      </trkpt>
      <trkpt lat="43.34054" lon="6.54714">
        <ele>78.08</ele>
        <time>2025-03-15T13:41:10.914Z</time>
      </trkpt>
      <trkpt lat="43.34051" lon="6.54717">
        <ele>77.8</ele>
        <time>2025-03-15T13:41:12.132Z</time>
      </trkpt>
      <trkpt lat="43.34047" lon="6.54719">
        <ele>77.53</ele>
        <time>2025-03-15T13:41:13.370Z</time>
      </trkpt>
      <trkpt lat="43.34042" lon="6.54722">
        <ele>77.27</ele>
        <time>2025-03-15T13:41:14.703Z</time>
      </trkpt>
      <trkpt lat="43.34038" lon="6.54724">
        <ele>77.01</ele>
        <time>2025-03-15T13:41:16.046Z</time>
      </trkpt>
      <trkpt lat="43.34024" lon="6.54728">
        <ele>76.75</ele>
        <time>2025-03-15T13:41:20.444Z</time>
      </trkpt>
      <trkpt lat="43.34014" lon="6.5473">
        <ele>76.55</ele>
        <time>2025-03-15T13:41:23.489Z</time>
      </trkpt>
      <trkpt lat="43.34006" lon="6.54732">
        <ele>76.35</ele>
        <time>2025-03-15T13:41:25.954Z</time>
      </trkpt>
      <trkpt lat="43.34001" lon="6.54732">
        <ele>76.15</ele>
        <time>2025-03-15T13:41:27.411Z</time>
      </trkpt>
      <trkpt lat="43.33996" lon="6.54733">
        <ele>75.96</ele>
        <time>2025-03-15T13:41:28.953Z</time>
      </trkpt>
      <trkpt lat="43.3399" lon="6.54733">
        <ele>75.79</ele>
        <time>2025-03-15T13:41:30.569Z</time>
      </trkpt>
      <trkpt lat="43.33984" lon="6.54733">
        <ele>75.62</ele>
        <time>2025-03-15T13:41:32.288Z</time>
      </trkpt>
      <trkpt lat="43.33973" lon="6.54735">
        <ele>75.47</ele>
        <time>2025-03-15T13:41:35.711Z</time>
      </trkpt>
      <trkpt lat="43.33963" lon="6.54738">
        <ele>75.34</ele>
        <time>2025-03-15T13:41:39.079Z</time>
      </trkpt>
      <trkpt lat="43.3393" lon="6.54739">
        <ele>75.25</ele>
        <time>2025-03-15T13:41:49.578Z</time>
      </trkpt>
      <trkpt lat="43.33925" lon="6.54739">
        <ele>75.11</ele>
        <time>2025-03-15T13:41:50.998Z</time>
      </trkpt>
      <trkpt lat="43.33921" lon="6.54739">
        <ele>74.96</ele>
        <time>2025-03-15T13:41:52.309Z</time>
      </trkpt>
      <trkpt lat="43.33915" lon="6.5474">
        <ele>74.81</ele>
        <time>2025-03-15T13:41:54.057Z</time>
      </trkpt>
      <trkpt lat="43.33911" lon="6.54742">
        <ele>74.64</ele>
        <time>2025-03-15T13:41:55.402Z</time>
      </trkpt>
      <trkpt lat="43.33898" lon="6.54754">
        <ele>74.45</ele>
        <time>2025-03-15T13:42:00.146Z</time>
      </trkpt>
      <trkpt lat="43.33893" lon="6.54753">
        <ele>74.24</ele>
        <time>2025-03-15T13:42:01.748Z</time>
      </trkpt>
      <trkpt lat="43.33881" lon="6.54743">
        <ele>74.02</ele>
        <time>2025-03-15T13:42:06.074Z</time>
      </trkpt>
      <trkpt lat="43.33861" lon="6.54736">
        <ele>73.78</ele>
        <time>2025-03-15T13:42:12.308Z</time>
      </trkpt>
      <trkpt lat="43.33852" lon="6.54731">
        <ele>73.59</ele>
        <time>2025-03-15T13:42:15.299Z</time>
      </trkpt>
      <trkpt lat="43.33843" lon="6.54728">
        <ele>73.42</ele>
        <time>2025-03-15T13:42:18.160Z</time>
      </trkpt>
      <trkpt lat="43.33825" lon="6.54719">
        <ele>73.26</ele>
        <time>2025-03-15T13:42:24.124Z</time>
      </trkpt>
      <trkpt lat="43.33817" lon="6.54716">
        <ele>73.16</ele>
        <time>2025-03-15T13:42:26.958Z</time>
      </trkpt>
      <trkpt lat="43.33809" lon="6.54711">
        <ele>73.07</ele>
        <time>2025-03-15T13:42:29.706Z</time>
      </trkpt>
      <trkpt lat="43.338" lon="6.54707">
        <ele>73.01</ele>
        <time>2025-03-15T13:42:32.499Z</time>
      </trkpt>
      <trkpt lat="43.33796" lon="6.54704">
        <ele>72.96</ele>
        <time>2025-03-15T13:42:33.869Z</time>
      </trkpt>
      <trkpt lat="43.33792" lon="6.54695">
        <ele>72.93</ele>
        <time>2025-03-15T13:42:36.492Z</time>
      </trkpt>
      <trkpt lat="43.33793" lon="6.54678">
        <ele>72.89</ele>
        <time>2025-03-15T13:42:40.426Z</time>
      </trkpt>
      <trkpt lat="43.33803" lon="6.54662">
        <ele>72.92</ele>
        <time>2025-03-15T13:42:45.474Z</time>
      </trkpt>
      <trkpt lat="43.33809" lon="6.54657">
        <ele>72.98</ele>
        <time>2025-03-15T13:42:48.071Z</time>
      </trkpt>
      <trkpt lat="43.33817" lon="6.54651">
        <ele>73.08</ele>
        <time>2025-03-15T13:42:50.806Z</time>
      </trkpt>
      <trkpt lat="43.3382" lon="6.54648">
        <ele>73.21</ele>
        <time>2025-03-15T13:42:52.244Z</time>
      </trkpt>
      <trkpt lat="43.33823" lon="6.54644">
        <ele>73.37</ele>
        <time>2025-03-15T13:42:53.727Z</time>
      </trkpt>
      <trkpt lat="43.33825" lon="6.5464">
        <ele>73.53</ele>
        <time>2025-03-15T13:42:55.138Z</time>
      </trkpt>
      <trkpt lat="43.33826" lon="6.54635">
        <ele>73.7</ele>
        <time>2025-03-15T13:42:56.445Z</time>
      </trkpt>
      <trkpt lat="43.33826" lon="6.54625">
        <ele>73.89</ele>
        <time>2025-03-15T13:42:59.013Z</time>
      </trkpt>
      <trkpt lat="43.33827" lon="6.54606">
        <ele>74.07</ele>
        <time>2025-03-15T13:43:03.702Z</time>
      </trkpt>
      <trkpt lat="43.33825" lon="6.54603">
        <ele>74.13</ele>
        <time>2025-03-15T13:43:04.619Z</time>
      </trkpt>
      <trkpt lat="43.3382" lon="6.546">
        <ele>74.15</ele>
        <time>2025-03-15T13:43:06.487Z</time>
      </trkpt>
      <trkpt lat="43.33815" lon="6.54597">
        <ele>74.18</ele>
        <time>2025-03-15T13:43:08.126Z</time>
      </trkpt>
    </trkseg>
  </trk>
</gpx>